Observation data for Tahoka on 12/13/2019      Previous  Date       Current Mesonet Observations  Soil Data  Daily Summary Page  Observations in Plain Language
KTAS 130600Z 24005KT 04/M02 A2998 RMK A01 T00401022  RH  064%=      5-min Rain = 0
KTAS 130601Z 23005KT 04/M02 A2998 RMK A01 T00441023  RH  062%=      5-min Rain = 0
KTAS 130602Z 23005KT 05/M02 A2998 RMK A01 T00451024  RH  061%=      5-min Rain = 0
KTAS 130603Z 23006KT 05/M03 A2998 RMK A01 T00461026  RH  060%=      5-min Rain = 0
KTAS 130604Z 23006KT 05/M03 A2998 RMK A01 T00481025  RH  059%=      5-min Rain = 0
KTAS 130605Z 24007KT 05/M03 A2998 RMK A01 T00501026  RH  058%=      5-min Rain = 0
KTAS 130606Z 23008KT 05/M03 A2998 RMK A01 T00501025  RH  058%=      5-min Rain = 0
KTAS 130607Z 23008KT 05/M03 A2998 RMK A01 T00481025  RH  059%=      5-min Rain = 0
KTAS 130608Z 23008KT 05/M02 A2998 RMK A01 T00471024  RH  060%=      5-min Rain = 0
KTAS 130609Z 24008KT 05/M02 A2998 RMK A01 T00471021  RH  061%=      5-min Rain = 0
KTAS 130610Z 23007KT 05/M02 A2998 RMK A01 T00481020  RH  061%=      5-min Rain = 0
KTAS 130611Z 23007KT 05/M02 A2998 RMK A01 T00471021  RH  061%=      5-min Rain = 0
KTAS 130612Z 24007KT 05/M02 A2997 RMK A01 T00471021  RH  062%=      5-min Rain = 0
KTAS 130613Z 24007KT 05/M02 A2997 RMK A01 T00471021  RH  062%=      5-min Rain = 0
KTAS 130614Z 24008KT 05/M02 A2997 RMK A01 T00471020  RH  062%=      5-min Rain = 0
KTAS 130615Z 24008KT 05/M02 A2997 RMK A01 T00471020  RH  062%=      5-min Rain = 0
KTAS 130616Z 24008KT 05/M02 A2997 RMK A01 T00471020  RH  062%=      5-min Rain = 0
KTAS 130617Z 24008KT 05/M02 A2997 RMK A01 T00471020  RH  062%=      5-min Rain = 0
KTAS 130618Z 24008KT 05/M02 A2997 RMK A01 T00461020  RH  062%=      5-min Rain = 0
KTAS 130619Z 24007KT 05/M02 A2997 RMK A01 T00461020  RH  062%=      5-min Rain = 0
KTAS 130620Z 24007KT 05/M02 A2997 RMK A01 T00461020  RH  062%=      5-min Rain = 0
KTAS 130621Z 24007KT 05/M02 A2997 RMK A01 T00451020  RH  063%=      5-min Rain = 0
KTAS 130622Z 24007KT 04/M02 A2997 RMK A01 T00441020  RH  063%=      5-min Rain = 0
KTAS 130623Z 24007KT 04/M02 A2997 RMK A01 T00441020  RH  063%=      5-min Rain = 0
KTAS 130624Z 24007KT 04/M02 A2997 RMK A01 T00441020  RH  063%=      5-min Rain = 0
KTAS 130625Z 24006KT 04/M02 A2997 RMK A01 T00441020  RH  063%=      5-min Rain = 0
KTAS 130626Z 24006KT 04/M02 A2997 RMK A01 T00441020  RH  063%=      5-min Rain = 0
KTAS 130627Z 24007KT 04/M02 A2997 RMK A01 T00431021  RH  063%=      5-min Rain = 0
KTAS 130628Z 24006KT 04/M02 A2996 RMK A01 T00431021  RH  063%=      5-min Rain = 0
KTAS 130629Z 24006KT 04/M02 A2996 RMK A01 T00421021  RH  064%=      5-min Rain = 0
KTAS 130630Z 24006KT 04/M02 A2996 RMK A01 T00421021  RH  064%=      5-min Rain = 0
KTAS 130631Z 24006KT 04/M02 A2996 RMK A01 T00411021  RH  064%=      5-min Rain = 0
KTAS 130632Z 24006KT 04/M02 A2996 RMK A01 T00401021  RH  064%=      5-min Rain = 0
KTAS 130633Z 24006KT 04/M02 A2996 RMK A01 T00391022  RH  065%=      5-min Rain = 0
KTAS 130634Z 24005KT 04/M02 A2996 RMK A01 T00371022  RH  065%=      5-min Rain = 0
KTAS 130635Z 24006KT 04/M02 A2996 RMK A01 T00361022  RH  066%=      5-min Rain = 0
KTAS 130636Z 24006KT 04/M02 A2996 RMK A01 T00361022  RH  066%=      5-min Rain = 0
KTAS 130637Z 25006KT 04/M02 A2996 RMK A01 T00361022  RH  066%=      5-min Rain = 0
KTAS 130638Z 25006KT 04/M02 A2996 RMK A01 T00351022  RH  066%=      5-min Rain = 0
KTAS 130639Z 25005KT 04/M02 A2996 RMK A01 T00351022  RH  066%=      5-min Rain = 0
KTAS 130640Z 25005KT 04/M02 A2996 RMK A01 T00361022  RH  066%=      5-min Rain = 0
KTAS 130641Z 26005KT 04/M02 A2996 RMK A01 T00361022  RH  066%=      5-min Rain = 0
KTAS 130642Z 26005KT 04/M02 A2996 RMK A01 T00361022  RH  066%=      5-min Rain = 0
KTAS 130643Z 25004KT 04/M02 A2996 RMK A01 T00361022  RH  066%=      5-min Rain = 0
KTAS 130644Z 25004KT 04/M02 A2996 RMK A01 T00361022  RH  066%=      5-min Rain = 0
KTAS 130645Z 24004KT 04/M02 A2996 RMK A01 T00361022  RH  066%=      5-min Rain = 0
KTAS 130646Z 23004KT 04/M02 A2996 RMK A01 T00351022  RH  066%=      5-min Rain = 0
KTAS 130647Z 22004KT 03/M02 A2996 RMK A01 T00341022  RH  066%=      5-min Rain = 0
KTAS 130648Z 22004KT 03/M02 A2996 RMK A01 T00341022  RH  067%=      5-min Rain = 0
KTAS 130649Z 22004KT 03/M02 A2996 RMK A01 T00331022  RH  067%=      5-min Rain = 0
KTAS 130650Z 22004KT 03/M02 A2996 RMK A01 T00331022  RH  067%=      5-min Rain = 0
KTAS 130651Z 22004KT 03/M02 A2996 RMK A01 T00331022  RH  067%=      5-min Rain = 0
KTAS 130652Z 23004KT 03/M02 A2996 RMK A01 T00341022  RH  067%=      5-min Rain = 0
KTAS 130653Z 23004KT 03/M02 A2996 RMK A01 T00341023  RH  067%=      5-min Rain = 0
KTAS 130654Z 23004KT 03/M02 A2996 RMK A01 T00341022  RH  067%=      5-min Rain = 0
KTAS 130655Z 24004KT 04/M02 A2996 RMK A01 T00351022  RH  066%=      5-min Rain = 0
KTAS 130656Z 24004KT 04/M02 A2996 RMK A01 T00361022  RH  066%=      5-min Rain = 0
KTAS 130657Z 24005KT 04/M02 A2996 RMK A01 T00361022  RH  066%=      5-min Rain = 0
KTAS 130658Z 23005KT 04/M02 A2996 RMK A01 T00361022  RH  065%=      5-min Rain = 0
KTAS 130659Z 23005KT 04/M02 A2996 RMK A01 T00361023  RH  065%=      5-min Rain = 0
KTAS 130700Z 24005KT 04/M02 A2996 RMK A01 T00351024  RH  066%=      5-min Rain = 0
KTAS 130701Z 24005KT 03/M02 A2996 RMK A01 T00331024  RH  066%=      5-min Rain = 0
KTAS 130702Z 24005KT 03/M03 A2996 RMK A01 T00301025  RH  067%=      5-min Rain = 0
KTAS 130703Z 25005KT 03/M02 A2996 RMK A01 T00291024  RH  068%=      5-min Rain = 0
KTAS 130704Z 24005KT 03/M02 A2996 RMK A01 T00291024  RH  068%=      5-min Rain = 0
KTAS 130705Z 25004KT 03/M03 A2996 RMK A01 T00281025  RH  068%=      5-min Rain = 0
KTAS 130706Z 25005KT 03/M03 A2996 RMK A01 T00261025  RH  069%=      5-min Rain = 0
KTAS 130707Z 25004KT 03/M02 A2996 RMK A01 T00261024  RH  070%=      5-min Rain = 0
KTAS 130708Z 26004KT 03/M02 A2996 RMK A01 T00261023  RH  070%=      5-min Rain = 0
KTAS 130709Z 27004KT 03/M02 A2996 RMK A01 T00261023  RH  070%=      5-min Rain = 0
KTAS 130710Z 27004KT 03/M02 A2996 RMK A01 T00261023  RH  070%=      5-min Rain = 0
KTAS 130711Z 27004KT 03/M02 A2996 RMK A01 T00271022  RH  070%=      5-min Rain = 0
KTAS 130712Z 26004KT 03/M02 A2995 RMK A01 T00271021  RH  070%=      5-min Rain = 0
KTAS 130713Z 26004KT 03/M02 A2995 RMK A01 T00281021  RH  070%=      5-min Rain = 0
KTAS 130714Z 26004KT 03/M02 A2995 RMK A01 T00281022  RH  069%=      5-min Rain = 0
KTAS 130715Z 26004KT 03/M02 A2995 RMK A01 T00291022  RH  069%=      5-min Rain = 0
KTAS 130716Z 26004KT 03/M02 A2995 RMK A01 T00281022  RH  069%=      5-min Rain = 0
KTAS 130717Z 27004KT 03/M02 A2995 RMK A01 T00281022  RH  069%=      5-min Rain = 0
KTAS 130718Z 27003KT 03/M02 A2995 RMK A01 T00281023  RH  069%=      5-min Rain = 0
KTAS 130719Z 26004KT 03/M02 A2995 RMK A01 T00271023  RH  070%=      5-min Rain = 0
KTAS 130720Z 26004KT 03/M02 A2995 RMK A01 T00271023  RH  070%=      5-min Rain = 0
KTAS 130721Z 26004KT 03/M02 A2995 RMK A01 T00271023  RH  070%=      5-min Rain = 0
KTAS 130722Z 26005KT 03/M02 A2995 RMK A01 T00261023  RH  070%=      5-min Rain = 0
KTAS 130723Z 26005KT 03/M02 A2995 RMK A01 T00261023  RH  070%=      5-min Rain = 0
KTAS 130724Z 26005KT 02/M02 A2995 RMK A01 T00241024  RH  070%=      5-min Rain = 0
KTAS 130725Z 26005KT 02/M02 A2995 RMK A01 T00231024  RH  071%=      5-min Rain = 0
KTAS 130726Z 26006KT 02/M03 A2995 RMK A01 T00221025  RH  071%=      5-min Rain = 0
KTAS 130727Z 26006KT 02/M03 A2995 RMK A01 T00201025  RH  072%=      5-min Rain = 0
KTAS 130728Z 26006KT 02/M03 A2995 RMK A01 T00191026  RH  072%=      5-min Rain = 0
KTAS 130729Z 26006KT 02/M03 A2995 RMK A01 T00181025  RH  073%=      5-min Rain = 0
KTAS 130730Z 26006KT 02/M03 A2995 RMK A01 T00181025  RH  074%=      5-min Rain = 0
KTAS 130731Z 26006KT 02/M02 A2995 RMK A01 T00171024  RH  074%=      5-min Rain = 0
KTAS 130732Z 27007KT 02/M02 A2995 RMK A01 T00171024  RH  074%=      5-min Rain = 0
KTAS 130733Z 26007KT 02/M02 A2995 RMK A01 T00161024  RH  075%=      5-min Rain = 0
KTAS 130734Z 27007KT 02/M02 A2995 RMK A01 T00151024  RH  075%=      5-min Rain = 0
KTAS 130735Z 26007KT 02/M02 A2995 RMK A01 T00151024  RH  075%=      5-min Rain = 0
KTAS 130736Z 26007KT 01/M02 A2995 RMK A01 T00141023  RH  076%=      5-min Rain = 0
KTAS 130737Z 27007KT 01/M02 A2995 RMK A01 T00141022  RH  077%=      5-min Rain = 0
KTAS 130738Z 27007KT 02/M02 A2995 RMK A01 T00151020  RH  077%=      5-min Rain = 0
KTAS 130739Z 27008KT 02/M02 A2995 RMK A01 T00171018  RH  078%=      5-min Rain = 0
KTAS 130740Z 27008KT 02/M02 A2995 RMK A01 T00191017  RH  077%=      5-min Rain = 0
KTAS 130741Z 27008KT 02/M02 A2995 RMK A01 T00201016  RH  077%=      5-min Rain = 0
KTAS 130742Z 27008KT 02/M02 A2995 RMK A01 T00211015  RH  077%=      5-min Rain = 0
KTAS 130743Z 27008KT 02/M01 A2995 RMK A01 T00221014  RH  077%=      5-min Rain = 0
KTAS 130744Z 27008KT 02/M01 A2995 RMK A01 T00241013  RH  076%=      5-min Rain = 0
KTAS 130745Z 27008KT 03/M01 A2995 RMK A01 T00261012  RH  076%=      5-min Rain = 0
KTAS 130746Z 27009KT 03/M01 A2995 RMK A01 T00281011  RH  076%=      5-min Rain = 0
KTAS 130747Z 27009KT 03/M01 A2995 RMK A01 T00311009  RH  075%=      5-min Rain = 0
KTAS 130748Z 28010KT 03/M01 A2995 RMK A01 T00341008  RH  074%=      5-min Rain = 0
KTAS 130749Z 28011KT 04/M01 A2995 RMK A01 T00371007  RH  073%=      5-min Rain = 0
KTAS 130750Z 28010KT 04/M01 A2995 RMK A01 T00391007  RH  072%=      5-min Rain = 0
KTAS 130751Z 28011KT 04/M01 A2995 RMK A01 T00411007  RH  071%=      5-min Rain = 0
KTAS 130752Z 28011KT 04/M01 A2995 RMK A01 T00431007  RH  070%=      5-min Rain = 0
KTAS 130753Z 28012KT 05/M01 A2995 RMK A01 T00451008  RH  069%=      5-min Rain = 0
KTAS 130754Z 28012KT 05/M01 A2995 RMK A01 T00461008  RH  068%=      5-min Rain = 0
KTAS 130755Z 28012KT 05/M01 A2995 RMK A01 T00471009  RH  067%=      5-min Rain = 0
KTAS 130756Z 28011KT 05/M01 A2995 RMK A01 T00471009  RH  067%=      5-min Rain = 0
KTAS 130757Z 28011KT 05/M01 A2995 RMK A01 T00471009  RH  067%=      5-min Rain = 0
KTAS 130758Z 28011KT 05/M01 A2995 RMK A01 T00481009  RH  067%=      5-min Rain = 0
KTAS 130759Z 28010KT 05/M01 A2995 RMK A01 T00471010  RH  067%=      5-min Rain = 0
KTAS 130800Z 28011KT 05/M01 A2995 RMK A01 T00461010  RH  067%=      5-min Rain = 0
KTAS 130801Z 28011KT 05/M01 A2995 RMK A01 T00471010  RH  067%=      5-min Rain = 0
KTAS 130802Z 28011KT 05/M01 A2995 RMK A01 T00471010  RH  066%=      5-min Rain = 0
KTAS 130803Z 28013KT 05/M01 A2995 RMK A01 T00471010  RH  067%=      5-min Rain = 0
KTAS 130804Z 28010KT 05/M01 A2995 RMK A01 T00481010  RH  066%=      5-min Rain = 0
KTAS 130805Z 28011KT 05/M01 A2995 RMK A01 T00481010  RH  066%=      5-min Rain = 0
KTAS 130806Z 28011KT 05/M01 A2995 RMK A01 T00491010  RH  066%=      5-min Rain = 0
KTAS 130807Z 28012KT 05/M01 A2995 RMK A01 T00491011  RH  065%=      5-min Rain = 0
KTAS 130808Z 28011KT 05/M01 A2995 RMK A01 T00491011  RH  065%=      5-min Rain = 0
KTAS 130809Z 28011KT 05/M01 A2995 RMK A01 T00481011  RH  065%=      5-min Rain = 0
KTAS 130810Z 29010KT 05/M01 A2995 RMK A01 T00481011  RH  065%=      5-min Rain = 0
KTAS 130811Z 28011KT 05/M01 A2995 RMK A01 T00481012  RH  066%=      5-min Rain = 0
KTAS 130812Z 29010KT 05/M01 A2995 RMK A01 T00471012  RH  066%=      5-min Rain = 0
KTAS 130813Z 29010KT 05/M01 A2995 RMK A01 T00471012  RH  066%=      5-min Rain = 0
KTAS 130814Z 29011KT 05/M01 A2995 RMK A01 T00471012  RH  066%=      5-min Rain = 0
KTAS 130815Z 29011KT 05/M01 A2995 RMK A01 T00461012  RH  066%=      5-min Rain = 0
KTAS 130816Z 29010KT 05/M01 A2994 RMK A01 T00461012  RH  066%=      5-min Rain = 0
KTAS 130817Z 29010KT 05/M01 A2994 RMK A01 T00451013  RH  066%=      5-min Rain = 0
KTAS 130818Z 29012KT 04/M01 A2994 RMK A01 T00441013  RH  067%=      5-min Rain = 0
KTAS 130819Z 28010KT 05/M01 A2995 RMK A01 T00451012  RH  066%=      5-min Rain = 0
KTAS 130820Z 29011KT 04/M01 A2995 RMK A01 T00441013  RH  067%=      5-min Rain = 0
KTAS 130821Z 29011KT 04/M01 A2995 RMK A01 T00431013  RH  067%=      5-min Rain = 0
KTAS 130822Z 29011KT 04/M01 A2995 RMK A01 T00431013  RH  067%=      5-min Rain = 0
KTAS 130823Z 29010KT 04/M01 A2995 RMK A01 T00421013  RH  067%=      5-min Rain = 0
KTAS 130824Z 29011KT 04/M01 A2995 RMK A01 T00421013  RH  067%=      5-min Rain = 0
KTAS 130825Z 29010KT 04/M01 A2995 RMK A01 T00411014  RH  067%=      5-min Rain = 0
KTAS 130826Z 29010KT 04/M01 A2995 RMK A01 T00411014  RH  067%=      5-min Rain = 0
KTAS 130827Z 29011KT 04/M01 A2995 RMK A01 T00411014  RH  067%=      5-min Rain = 0
KTAS 130828Z 29009KT 04/M01 A2995 RMK A01 T00411014  RH  067%=      5-min Rain = 0
KTAS 130829Z 29009KT 04/M01 A2994 RMK A01 T00411014  RH  067%=      5-min Rain = 0
KTAS 130830Z 29009KT 04/M02 A2994 RMK A01 T00411015  RH  067%=      5-min Rain = 0
KTAS 130831Z 29010KT 04/M02 A2995 RMK A01 T00401015  RH  067%=      5-min Rain = 0
KTAS 130832Z 29008KT 04/M02 A2994 RMK A01 T00391015  RH  068%=      5-min Rain = 0
KTAS 130833Z 29009KT 04/M02 A2994 RMK A01 T00391015  RH  068%=      5-min Rain = 0
KTAS 130834Z 29009KT 04/M02 A2995 RMK A01 T00391015  RH  068%=      5-min Rain = 0
KTAS 130835Z 29009KT 04/M02 A2995 RMK A01 T00381015  RH  068%=      5-min Rain = 0
KTAS 130836Z 29008KT 04/M02 A2995 RMK A01 T00381015  RH  068%=      5-min Rain = 0
KTAS 130837Z 29010KT 04/M02 A2995 RMK A01 T00381015  RH  069%=      5-min Rain = 0
KTAS 130838Z 29009KT 04/M02 A2995 RMK A01 T00371015  RH  069%=      5-min Rain = 0
KTAS 130839Z 29008KT 04/M02 A2995 RMK A01 T00361015  RH  069%=      5-min Rain = 0
KTAS 130840Z 29010KT 04/M02 A2995 RMK A01 T00361015  RH  069%=      5-min Rain = 0
KTAS 130841Z 29010KT 04/M02 A2995 RMK A01 T00361015  RH  069%=      5-min Rain = 0
KTAS 130842Z 29009KT 04/M01 A2995 RMK A01 T00371014  RH  069%=      5-min Rain = 0
KTAS 130843Z 29009KT 04/M01 A2995 RMK A01 T00371014  RH  069%=      5-min Rain = 0
KTAS 130844Z 29010KT 04/M01 A2994 RMK A01 T00381014  RH  069%=      5-min Rain = 0
KTAS 130845Z 28009KT 04/M01 A2994 RMK A01 T00381014  RH  069%=      5-min Rain = 0
KTAS 130846Z 28010KT 04/M01 A2994 RMK A01 T00381014  RH  069%=      5-min Rain = 0
KTAS 130847Z 28011KT 04/M01 A2994 RMK A01 T00381014  RH  069%=      5-min Rain = 0
KTAS 130848Z 28011KT 04/M01 A2994 RMK A01 T00381014  RH  068%=      5-min Rain = 0
KTAS 130849Z 28011KT 04/M01 A2994 RMK A01 T00391014  RH  068%=      5-min Rain = 0
KTAS 130850Z 28010KT 04/M01 A2994 RMK A01 T00391014  RH  068%=      5-min Rain = 0
KTAS 130851Z 28011KT 04/M02 A2994 RMK A01 T00401015  RH  068%=      5-min Rain = 0
KTAS 130852Z 28011KT 04/M02 A2994 RMK A01 T00411015  RH  067%=      5-min Rain = 0
KTAS 130853Z 28011KT 04/M02 A2994 RMK A01 T00411015  RH  067%=      5-min Rain = 0
KTAS 130854Z 28011KT 04/M02 A2995 RMK A01 T00421016  RH  066%=      5-min Rain = 0
KTAS 130855Z 28012KT 04/M02 A2995 RMK A01 T00421016  RH  066%=      5-min Rain = 0
KTAS 130856Z 28012KT 04/M02 A2995 RMK A01 T00431016  RH  066%=      5-min Rain = 0
KTAS 130857Z 28013KT 05/M02 A2995 RMK A01 T00451016  RH  065%=      5-min Rain = 0
KTAS 130858Z 28013KT 05/M02 A2995 RMK A01 T00461016  RH  064%=      5-min Rain = 0
KTAS 130859Z 28013KT 05/M02 A2994 RMK A01 T00461017  RH  064%=      5-min Rain = 0
KTAS 130900Z 29013KT 05/M02 A2994 RMK A01 T00471017  RH  063%=      5-min Rain = 0
KTAS 130901Z 29012KT 05/M02 A2994 RMK A01 T00481018  RH  062%=      5-min Rain = 0
KTAS 130902Z 29011KT 05/M02 A2994 RMK A01 T00481018  RH  062%=      5-min Rain = 0
KTAS 130903Z 29011KT 05/M02 A2994 RMK A01 T00491018  RH  062%=      5-min Rain = 0
KTAS 130904Z 29011KT 05/M02 A2995 RMK A01 T00491019  RH  062%=      5-min Rain = 0
KTAS 130905Z 29011KT 05/M02 A2995 RMK A01 T00491019  RH  061%=      5-min Rain = 0
KTAS 130906Z 29012KT 05/M02 A2995 RMK A01 T00491019  RH  061%=      5-min Rain = 0
KTAS 130907Z 29012KT 05/M02 A2995 RMK A01 T00491019  RH  061%=      5-min Rain = 0
KTAS 130908Z 29011KT 05/M02 A2995 RMK A01 T00511019  RH  061%=      5-min Rain = 0
KTAS 130909Z 29013KT 05/M02 A2995 RMK A01 T00531019  RH  060%=      5-min Rain = 0
KTAS 130910Z 29014KT 06/M02 A2995 RMK A01 T00561019  RH  059%=      5-min Rain = 0
KTAS 130911Z 29013KT 06/M02 A2995 RMK A01 T00591019  RH  057%=      5-min Rain = 0
KTAS 130912Z 28014KT 06/M02 A2995 RMK A01 T00611019  RH  057%=      5-min Rain = 0
KTAS 130913Z 28015KT 06/M02 A2995 RMK A01 T00631019  RH  056%=      5-min Rain = 0
KTAS 130914Z 28015KT 07/M02 A2994 RMK A01 T00651019  RH  055%=      5-min Rain = 0
KTAS 130915Z 28015KT 07/M02 A2994 RMK A01 T00671019  RH  054%=      5-min Rain = 0
KTAS 130916Z 28015KT 07/M02 A2994 RMK A01 T00691019  RH  053%=      5-min Rain = 0
KTAS 130917Z 28016KT 07/M02 A2994 RMK A01 T00711019  RH  052%=      5-min Rain = 0
KTAS 130918Z 29015KT 07/M02 A2995 RMK A01 T00731020  RH  052%=      5-min Rain = 0
KTAS 130919Z 29014KT 07/M02 A2995 RMK A01 T00731020  RH  052%=      5-min Rain = 0
KTAS 130920Z 29015KT 07/M02 A2995 RMK A01 T00741020  RH  051%=      5-min Rain = 0
KTAS 130926Z 29012KT 07/M02 A2995 RMK A01 T00721021  RH  052%=      5-min Rain = 0
KTAS 130927Z 29012KT 07/M02 A2995 RMK A01 T00711021  RH  052%=      5-min Rain = 0
KTAS 130928Z 29012KT 07/M02 A2995 RMK A01 T00711021  RH  052%=      5-min Rain = 0
KTAS 130929Z 29013KT 07/M02 A2995 RMK A01 T00711022  RH  052%=      5-min Rain = 0
KTAS 130930Z 29012G17KT 07/M02 A2995 RMK A01 T00711022  RH  052%=      5-min Rain = 0
KTAS 130931Z 29012KT 07/M02 A2995 RMK A01 T00691022  RH  052%=      5-min Rain = 0
KTAS 130932Z 29013KT 07/M02 A2995 RMK A01 T00681022  RH  052%=      5-min Rain = 0
KTAS 130933Z 29012KT 07/M02 A2995 RMK A01 T00671022  RH  053%=      5-min Rain = 0
KTAS 130934Z 29012KT 07/M02 A2995 RMK A01 T00671023  RH  053%=      5-min Rain = 0
KTAS 130935Z 29012KT 07/M02 A2995 RMK A01 T00671023  RH  053%=      5-min Rain = 0
KTAS 130936Z 29011KT 07/M02 A2995 RMK A01 T00661023  RH  053%=      5-min Rain = 0
KTAS 130937Z 29011KT 07/M02 A2995 RMK A01 T00651023  RH  053%=      5-min Rain = 0
KTAS 130938Z 29012KT 07/M02 A2995 RMK A01 T00651023  RH  053%=      5-min Rain = 0
KTAS 130939Z 29011KT 07/M02 A2994 RMK A01 T00651024  RH  053%=      5-min Rain = 0
KTAS 130940Z 29012KT 06/M02 A2994 RMK A01 T00641024  RH  053%=      5-min Rain = 0
KTAS 130941Z 29010KT 06/M02 A2994 RMK A01 T00631024  RH  054%=      5-min Rain = 0
KTAS 130942Z 29010KT 06/M02 A2994 RMK A01 T00621024  RH  054%=      5-min Rain = 0
KTAS 130943Z 29010KT 06/M02 A2994 RMK A01 T00611024  RH  055%=      5-min Rain = 0
KTAS 130944Z 29010KT 06/M02 A2994 RMK A01 T00601024  RH  055%=      5-min Rain = 0
KTAS 130945Z 29009KT 06/M02 A2994 RMK A01 T00591024  RH  055%=      5-min Rain = 0
KTAS 130946Z 29010KT 06/M02 A2994 RMK A01 T00581024  RH  056%=      5-min Rain = 0
KTAS 130947Z 29009KT 06/M02 A2994 RMK A01 T00571024  RH  056%=      5-min Rain = 0
KTAS 130948Z 29009KT 06/M02 A2994 RMK A01 T00561024  RH  056%=      5-min Rain = 0
KTAS 130949Z 29009KT 06/M02 A2994 RMK A01 T00551024  RH  057%=      5-min Rain = 0
KTAS 130950Z 29009KT 05/M02 A2994 RMK A01 T00541024  RH  057%=      5-min Rain = 0
KTAS 130951Z 29009KT 05/M02 A2994 RMK A01 T00531024  RH  057%=      5-min Rain = 0
KTAS 130952Z 29008KT 05/M02 A2994 RMK A01 T00531024  RH  058%=      5-min Rain = 0
KTAS 130953Z 30008KT 05/M03 A2994 RMK A01 T00521025  RH  058%=      5-min Rain = 0
KTAS 130954Z 30008KT 05/M02 A2994 RMK A01 T00511024  RH  058%=      5-min Rain = 0
KTAS 130955Z 30009KT 05/M02 A2994 RMK A01 T00521024  RH  058%=      5-min Rain = 0
KTAS 130956Z 30009KT 05/M03 A2994 RMK A01 T00511025  RH  058%=      5-min Rain = 0
KTAS 130957Z 30008KT 05/M02 A2994 RMK A01 T00511024  RH  058%=      5-min Rain = 0
KTAS 130958Z 30008KT 05/M03 A2994 RMK A01 T00501025  RH  058%=      5-min Rain = 0
KTAS 130959Z 30009KT 05/M02 A2994 RMK A01 T00511024  RH  058%=      5-min Rain = 0
KTAS 131000Z 30009KT 05/M03 A2994 RMK A01 T00511025  RH  058%=      5-min Rain = 0
KTAS 131001Z 30009KT 05/M03 A2994 RMK A01 T00511025  RH  058%=      5-min Rain = 0
KTAS 131002Z 29009KT 05/M03 A2994 RMK A01 T00511025  RH  058%=      5-min Rain = 0
KTAS 131003Z 29009KT 05/M02 A2994 RMK A01 T00511024  RH  058%=      5-min Rain = 0
KTAS 131004Z 29009KT 05/M02 A2994 RMK A01 T00511024  RH  058%=      5-min Rain = 0
KTAS 131005Z 29008KT 05/M02 A2994 RMK A01 T00511024  RH  058%=      5-min Rain = 0
KTAS 131006Z 29010KT 05/M02 A2993 RMK A01 T00511024  RH  058%=      5-min Rain = 0
KTAS 131007Z 29009KT 05/M02 A2993 RMK A01 T00521024  RH  058%=      5-min Rain = 0
KTAS 131008Z 29009KT 05/M02 A2993 RMK A01 T00521024  RH  058%=      5-min Rain = 0
KTAS 131009Z 29010KT 05/M02 A2993 RMK A01 T00521024  RH  058%=      5-min Rain = 0
KTAS 131010Z 30010KT 05/M02 A2993 RMK A01 T00531024  RH  058%=      5-min Rain = 0
KTAS 131011Z 30010KT 05/M02 A2994 RMK A01 T00541023  RH  058%=      5-min Rain = 0
KTAS 131012Z 30011KT 05/M02 A2994 RMK A01 T00541024  RH  057%=      5-min Rain = 0
KTAS 131013Z 30010KT 06/M02 A2994 RMK A01 T00551023  RH  057%=      5-min Rain = 0
KTAS 131014Z 29010KT 06/M02 A2994 RMK A01 T00551024  RH  057%=      5-min Rain = 0
KTAS 131015Z 29009KT 06/M02 A2994 RMK A01 T00551024  RH  057%=      5-min Rain = 0
KTAS 131016Z 29010KT 05/M02 A2994 RMK A01 T00541024  RH  057%=      5-min Rain = 0
KTAS 131017Z 29011KT 05/M02 A2994 RMK A01 T00541023  RH  057%=      5-min Rain = 0
KTAS 131018Z 29010KT 05/M02 A2995 RMK A01 T00541023  RH  057%=      5-min Rain = 0
KTAS 131019Z 29012KT 05/M02 A2995 RMK A01 T00541023  RH  057%=      5-min Rain = 0
KTAS 131020Z 28012KT 06/M02 A2995 RMK A01 T00551023  RH  057%=      5-min Rain = 0
KTAS 131021Z 28012KT 06/M02 A2995 RMK A01 T00551023  RH  057%=      5-min Rain = 0
KTAS 131022Z 29013KT 06/M02 A2995 RMK A01 T00561022  RH  057%=      5-min Rain = 0
KTAS 131023Z 28013KT 06/M02 A2995 RMK A01 T00571022  RH  057%=      5-min Rain = 0
KTAS 131024Z 28013KT 06/M02 A2995 RMK A01 T00581022  RH  056%=      5-min Rain = 0
KTAS 131025Z 28013KT 06/M02 A2995 RMK A01 T00581023  RH  056%=      5-min Rain = 0
KTAS 131026Z 29012KT 06/M02 A2995 RMK A01 T00591023  RH  056%=      5-min Rain = 0
KTAS 131027Z 29012KT 06/M02 A2994 RMK A01 T00611023  RH  055%=      5-min Rain = 0
KTAS 131028Z 29011KT 06/M02 A2994 RMK A01 T00621023  RH  055%=      5-min Rain = 0
KTAS 131029Z 29011KT 06/M02 A2994 RMK A01 T00621023  RH  054%=      5-min Rain = 0
KTAS 131030Z 29012KT 06/M02 A2994 RMK A01 T00621024  RH  054%=      5-min Rain = 0
KTAS 131031Z 29011KT 06/M02 A2994 RMK A01 T00621024  RH  054%=      5-min Rain = 0
KTAS 131032Z 29010KT 06/M02 A2994 RMK A01 T00631024  RH  054%=      5-min Rain = 0
KTAS 131033Z 29010KT 06/M02 A2994 RMK A01 T00631024  RH  054%=      5-min Rain = 0
KTAS 131034Z 29010KT 06/M02 A2994 RMK A01 T00631024  RH  054%=      5-min Rain = 0
KTAS 131035Z 29010KT 06/M03 A2994 RMK A01 T00621025  RH  054%=      5-min Rain = 0
KTAS 131036Z 29009KT 06/M03 A2994 RMK A01 T00621025  RH  054%=      5-min Rain = 0
KTAS 131037Z 29010KT 06/M03 A2994 RMK A01 T00611025  RH  054%=      5-min Rain = 0
KTAS 131038Z 29009KT 06/M03 A2994 RMK A01 T00611025  RH  054%=      5-min Rain = 0
KTAS 131039Z 29010KT 06/M03 A2994 RMK A01 T00601025  RH  054%=      5-min Rain = 0
KTAS 131040Z 30009KT 06/M03 A2994 RMK A01 T00601026  RH  054%=      5-min Rain = 0
KTAS 131041Z 29008KT 06/M03 A2994 RMK A01 T00601025  RH  054%=      5-min Rain = 0
KTAS 131042Z 30008KT 06/M03 A2994 RMK A01 T00591026  RH  055%=      5-min Rain = 0
KTAS 131043Z 30008KT 06/M03 A2995 RMK A01 T00581026  RH  055%=      5-min Rain = 0
KTAS 131044Z 30007KT 06/M03 A2995 RMK A01 T00561026  RH  055%=      5-min Rain = 0
KTAS 131045Z 30009KT 06/M03 A2994 RMK A01 T00551026  RH  056%=      5-min Rain = 0
KTAS 131046Z 30008KT 06/M03 A2994 RMK A01 T00551026  RH  056%=      5-min Rain = 0
KTAS 131047Z 30009KT 06/M03 A2994 RMK A01 T00551026  RH  056%=      5-min Rain = 0
KTAS 131048Z 30008KT 05/M03 A2994 RMK A01 T00541026  RH  056%=      5-min Rain = 0
KTAS 131049Z 29008KT 05/M03 A2993 RMK A01 T00541026  RH  057%=      5-min Rain = 0
KTAS 131050Z 30007KT 05/M03 A2993 RMK A01 T00531026  RH  057%=      5-min Rain = 0
KTAS 131051Z 30008KT 05/M03 A2993 RMK A01 T00521026  RH  057%=      5-min Rain = 0
KTAS 131052Z 30008KT 05/M03 A2993 RMK A01 T00511026  RH  057%=      5-min Rain = 0
KTAS 131053Z 29008KT 05/M03 A2993 RMK A01 T00501027  RH  058%=      5-min Rain = 0
KTAS 131054Z 29008KT 05/M03 A2993 RMK A01 T00491027  RH  058%=      5-min Rain = 0
KTAS 131055Z 29009KT 05/M03 A2994 RMK A01 T00481027  RH  058%=      5-min Rain = 0
KTAS 131056Z 29009KT 05/M03 A2994 RMK A01 T00471027  RH  059%=      5-min Rain = 0
KTAS 131057Z 29008KT 05/M03 A2994 RMK A01 T00471027  RH  059%=      5-min Rain = 0
KTAS 131058Z 30009KT 05/M03 A2994 RMK A01 T00461028  RH  059%=      5-min Rain = 0
KTAS 131059Z 30009KT 05/M03 A2994 RMK A01 T00451028  RH  059%=      5-min Rain = 0
KTAS 131100Z 30008KT 05/M03 A2994 RMK A01 T00451027  RH  059%=      5-min Rain = 0
KTAS 131101Z 30008KT 05/M03 A2994 RMK A01 T00451027  RH  059%=      5-min Rain = 0
KTAS 131102Z 30008KT 04/M03 A2994 RMK A01 T00441028  RH  060%=      5-min Rain = 0
KTAS 131103Z 29008KT 04/M03 A2994 RMK A01 T00441028  RH  060%=      5-min Rain = 0
KTAS 131104Z 29008KT 04/M03 A2994 RMK A01 T00431028  RH  060%=      5-min Rain = 0
KTAS 131105Z 29008KT 04/M03 A2994 RMK A01 T00431028  RH  060%=      5-min Rain = 0
KTAS 131106Z 29008KT 04/M03 A2994 RMK A01 T00431027  RH  060%=      5-min Rain = 0
KTAS 131107Z 29008KT 04/M03 A2993 RMK A01 T00431028  RH  060%=      5-min Rain = 0
KTAS 131108Z 29008KT 04/M03 A2993 RMK A01 T00431028  RH  060%=      5-min Rain = 0
KTAS 131109Z 29008KT 04/M03 A2993 RMK A01 T00421028  RH  060%=      5-min Rain = 0
KTAS 131110Z 29008KT 04/M03 A2993 RMK A01 T00411028  RH  061%=      5-min Rain = 0
KTAS 131111Z 29008KT 04/M03 A2993 RMK A01 T00411027  RH  061%=      5-min Rain = 0
KTAS 131112Z 29008KT 04/M03 A2993 RMK A01 T00411027  RH  061%=      5-min Rain = 0
KTAS 131113Z 29008KT 04/M03 A2993 RMK A01 T00411027  RH  061%=      5-min Rain = 0
KTAS 131114Z 30008KT 04/M03 A2994 RMK A01 T00411027  RH  061%=      5-min Rain = 0
KTAS 131115Z 30008KT 04/M03 A2994 RMK A01 T00411027  RH  061%=      5-min Rain = 0
KTAS 131116Z 30008KT 04/M03 A2994 RMK A01 T00401027  RH  061%=      5-min Rain = 0
KTAS 131117Z 30009KT 04/M03 A2994 RMK A01 T00401027  RH  062%=      5-min Rain = 0
KTAS 131118Z 29008KT 04/M03 A2995 RMK A01 T00391027  RH  062%=      5-min Rain = 0
KTAS 131119Z 29008KT 04/M03 A2995 RMK A01 T00391027  RH  062%=      5-min Rain = 0
KTAS 131120Z 30008KT 04/M03 A2995 RMK A01 T00391027  RH  062%=      5-min Rain = 0
KTAS 131121Z 30008KT 04/M03 A2995 RMK A01 T00391027  RH  062%=      5-min Rain = 0
KTAS 131122Z 30007KT 04/M03 A2995 RMK A01 T00391027  RH  062%=      5-min Rain = 0
KTAS 131123Z 30008KT 04/M03 A2995 RMK A01 T00381027  RH  062%=      5-min Rain = 0
KTAS 131124Z 31007KT 04/M03 A2995 RMK A01 T00381027  RH  062%=      5-min Rain = 0
KTAS 131125Z 31007KT 04/M03 A2995 RMK A01 T00381027  RH  062%=      5-min Rain = 0
KTAS 131126Z 31007KT 04/M03 A2995 RMK A01 T00381027  RH  062%=      5-min Rain = 0
KTAS 131127Z 31007KT 04/M03 A2995 RMK A01 T00371028  RH  062%=      5-min Rain = 0
KTAS 131128Z 31007KT 04/M03 A2995 RMK A01 T00371028  RH  062%=      5-min Rain = 0
KTAS 131129Z 32007KT 04/M03 A2995 RMK A01 T00361028  RH  063%=      5-min Rain = 0
KTAS 131130Z 32007KT 04/M03 A2995 RMK A01 T00361029  RH  063%=      5-min Rain = 0
KTAS 131131Z 32007KT 03/M03 A2995 RMK A01 T00341030  RH  063%=      5-min Rain = 0
KTAS 131132Z 32007KT 03/M03 A2995 RMK A01 T00341029  RH  063%=      5-min Rain = 0
KTAS 131133Z 32007KT 03/M03 A2995 RMK A01 T00331030  RH  063%=      5-min Rain = 0
KTAS 131134Z 32008KT 03/M03 A2995 RMK A01 T00331030  RH  063%=      5-min Rain = 0
KTAS 131135Z 32008KT 03/M03 A2995 RMK A01 T00341029  RH  063%=      5-min Rain = 0
KTAS 131136Z 32007KT 03/M03 A2995 RMK A01 T00341029  RH  063%=      5-min Rain = 0
KTAS 131137Z 32008KT 03/M03 A2995 RMK A01 T00331030  RH  063%=      5-min Rain = 0
KTAS 131138Z 32008KT 03/M03 A2995 RMK A01 T00331030  RH  063%=      5-min Rain = 0
KTAS 131139Z 31007KT 03/M03 A2995 RMK A01 T00331030  RH  063%=      5-min Rain = 0
KTAS 131140Z 31008KT 03/M03 A2995 RMK A01 T00341030  RH  063%=      5-min Rain = 0
KTAS 131141Z 31008KT 03/M03 A2995 RMK A01 T00341030  RH  063%=      5-min Rain = 0
KTAS 131142Z 30008KT 03/M03 A2995 RMK A01 T00341030  RH  063%=      5-min Rain = 0
KTAS 131143Z 30008KT 03/M03 A2995 RMK A01 T00331031  RH  063%=      5-min Rain = 0
KTAS 131144Z 30008KT 03/M03 A2995 RMK A01 T00331030  RH  063%=      5-min Rain = 0
KTAS 131145Z 30008KT 03/M03 A2995 RMK A01 T00341030  RH  063%=      5-min Rain = 0
KTAS 131146Z 31007KT 03/M03 A2995 RMK A01 T00331031  RH  063%=      5-min Rain = 0
KTAS 131147Z 31007KT 03/M03 A2995 RMK A01 T00331031  RH  063%=      5-min Rain = 0
KTAS 131148Z 31007KT 03/M03 A2995 RMK A01 T00331031  RH  063%=      5-min Rain = 0
KTAS 131149Z 31008KT 03/M03 A2995 RMK A01 T00321032  RH  063%=      5-min Rain = 0
KTAS 131150Z 31008KT 03/M03 A2995 RMK A01 T00311032  RH  063%=      5-min Rain = 0
KTAS 131151Z 31008KT 03/M03 A2995 RMK A01 T00311031  RH  064%=      5-min Rain = 0
KTAS 131152Z 31008KT 03/M03 A2995 RMK A01 T00311031  RH  064%=      5-min Rain = 0
KTAS 131153Z 31008KT 03/M03 A2995 RMK A01 T00311030  RH  064%=      5-min Rain = 0
KTAS 131154Z 31008KT 03/M03 A2994 RMK A01 T00311030  RH  064%=      5-min Rain = 0
KTAS 131155Z 31008KT 03/M03 A2994 RMK A01 T00321030  RH  064%=      5-min Rain = 0
KTAS 131156Z 31008KT 03/M03 A2994 RMK A01 T00321030  RH  064%=      5-min Rain = 0
KTAS 131157Z 31008KT 03/M03 A2994 RMK A01 T00311031  RH  064%=      5-min Rain = 0
KTAS 131158Z 31008KT 03/M03 A2994 RMK A01 T00311031  RH  064%=      5-min Rain = 0
KTAS 131159Z 31008KT 03/M03 A2994 RMK A01 T00311031  RH  064%=      5-min Rain = 0
KTAS 131200Z 31008KT 03/M03 A2994 RMK A01 T00301031  RH  064%=      5-min Rain = 0
KTAS 131201Z 30008KT 03/M03 A2994 RMK A01 T00301030  RH  064%=      5-min Rain = 0
KTAS 131202Z 30009KT 03/M03 A2994 RMK A01 T00301030  RH  064%=      5-min Rain = 0
KTAS 131203Z 30009KT 03/M03 A2994 RMK A01 T00301030  RH  064%=      5-min Rain = 0
KTAS 131204Z 30008KT 03/M03 A2994 RMK A01 T00301031  RH  064%=      5-min Rain = 0
KTAS 131205Z 30008KT 03/M03 A2994 RMK A01 T00301030  RH  065%=      5-min Rain = 0
KTAS 131206Z 30008KT 03/M03 A2994 RMK A01 T00301030  RH  065%=      5-min Rain = 0
KTAS 131207Z 30007KT 03/M03 A2994 RMK A01 T00301030  RH  065%=      5-min Rain = 0
KTAS 131208Z 30007KT 03/M03 A2994 RMK A01 T00311030  RH  065%=      5-min Rain = 0
KTAS 131209Z 30007KT 03/M03 A2994 RMK A01 T00301030  RH  065%=      5-min Rain = 0
KTAS 131210Z 30008KT 03/M03 A2994 RMK A01 T00301030  RH  065%=      5-min Rain = 0
KTAS 131211Z 30008KT 03/M03 A2995 RMK A01 T00291031  RH  065%=      5-min Rain = 0
KTAS 131212Z 30008KT 03/M03 A2995 RMK A01 T00281030  RH  065%=      5-min Rain = 0
KTAS 131213Z 30008KT 03/M03 A2994 RMK A01 T00281030  RH  065%=      5-min Rain = 0
KTAS 131214Z 30008KT 03/M03 A2994 RMK A01 T00281030  RH  066%=      5-min Rain = 0
KTAS 131215Z 29008KT 03/M03 A2995 RMK A01 T00281030  RH  066%=      5-min Rain = 0
KTAS 131216Z 29008KT 03/M03 A2994 RMK A01 T00271030  RH  066%=      5-min Rain = 0
KTAS 131217Z 29008KT 03/M03 A2994 RMK A01 T00271030  RH  066%=      5-min Rain = 0
KTAS 131218Z 29008KT 03/M03 A2994 RMK A01 T00261030  RH  066%=      5-min Rain = 0
KTAS 131219Z 29009KT 03/M03 A2994 RMK A01 T00251031  RH  067%=      5-min Rain = 0
KTAS 131220Z 29009KT 03/M03 A2994 RMK A01 T00251031  RH  067%=      5-min Rain = 0
KTAS 131221Z 29009KT 02/M03 A2994 RMK A01 T00241031  RH  067%=      5-min Rain = 0
KTAS 131222Z 29008KT 02/M03 A2994 RMK A01 T00231031  RH  067%=      5-min Rain = 0
KTAS 131223Z 29008KT 02/M03 A2994 RMK A01 T00231031  RH  068%=      5-min Rain = 0
KTAS 131224Z 29008KT 02/M03 A2994 RMK A01 T00221031  RH  068%=      5-min Rain = 0
KTAS 131225Z 29008KT 02/M03 A2994 RMK A01 T00211031  RH  068%=      5-min Rain = 0
KTAS 131226Z 29008KT 02/M03 A2994 RMK A01 T00211031  RH  068%=      5-min Rain = 0
KTAS 131227Z 29008KT 02/M03 A2994 RMK A01 T00211031  RH  069%=      5-min Rain = 0
KTAS 131228Z 29008KT 02/M03 A2994 RMK A01 T00211031  RH  069%=      5-min Rain = 0
KTAS 131229Z 30007KT 02/M03 A2994 RMK A01 T00211031  RH  069%=      5-min Rain = 0
KTAS 131230Z 30007KT 02/M03 A2994 RMK A01 T00211031  RH  069%=      5-min Rain = 0
KTAS 131231Z 30007KT 02/M03 A2994 RMK A01 T00211031  RH  069%=      5-min Rain = 0
KTAS 131232Z 30007KT 02/M03 A2994 RMK A01 T00211030  RH  069%=      5-min Rain = 0
KTAS 131233Z 30008KT 02/M03 A2994 RMK A01 T00221030  RH  069%=      5-min Rain = 0
KTAS 131234Z 30008KT 02/M03 A2994 RMK A01 T00221030  RH  068%=      5-min Rain = 0
KTAS 131235Z 30008KT 02/M03 A2994 RMK A01 T00231030  RH  068%=      5-min Rain = 0
KTAS 131236Z 30008KT 02/M03 A2994 RMK A01 T00231030  RH  068%=      5-min Rain = 0
KTAS 131237Z 30008KT 02/M03 A2994 RMK A01 T00241029  RH  068%=      5-min Rain = 0
KTAS 131238Z 30008KT 02/M03 A2994 RMK A01 T00241029  RH  068%=      5-min Rain = 0
KTAS 131239Z 30008KT 02/M03 A2994 RMK A01 T00241029  RH  068%=      5-min Rain = 0
KTAS 131240Z 30008KT 03/M03 A2994 RMK A01 T00251029  RH  068%=      5-min Rain = 0
KTAS 131241Z 30008KT 03/M03 A2994 RMK A01 T00251029  RH  068%=      5-min Rain = 0
KTAS 131242Z 30009KT 03/M03 A2994 RMK A01 T00251028  RH  068%=      5-min Rain = 0
KTAS 131243Z 30009KT 03/M03 A2994 RMK A01 T00251028  RH  068%=      5-min Rain = 0
KTAS 131244Z 30009KT 03/M03 A2995 RMK A01 T00251028  RH  068%=      5-min Rain = 0
KTAS 131245Z 30009KT 03/M03 A2995 RMK A01 T00261028  RH  068%=      5-min Rain = 0
KTAS 131246Z 30008KT 03/M03 A2995 RMK A01 T00261028  RH  068%=      5-min Rain = 0
KTAS 131247Z 30008KT 03/M03 A2995 RMK A01 T00261027  RH  068%=      5-min Rain = 0
KTAS 131248Z 30008KT 03/M03 A2995 RMK A01 T00261027  RH  068%=      5-min Rain = 0
KTAS 131249Z 30007KT 03/M03 A2995 RMK A01 T00261027  RH  068%=      5-min Rain = 0
KTAS 131250Z 30007KT 03/M03 A2995 RMK A01 T00271027  RH  068%=      5-min Rain = 0
KTAS 131251Z 30008KT 03/M03 A2995 RMK A01 T00271027  RH  068%=      5-min Rain = 0
KTAS 131252Z 30008KT 03/M03 A2995 RMK A01 T00261027  RH  068%=      5-min Rain = 0
KTAS 131253Z 30008KT 03/M03 A2995 RMK A01 T00261027  RH  068%=      5-min Rain = 0
KTAS 131254Z 30008KT 03/M03 A2995 RMK A01 T00261027  RH  068%=      5-min Rain = 0
KTAS 131255Z 30008KT 03/M03 A2995 RMK A01 T00251027  RH  068%=      5-min Rain = 0
KTAS 131256Z 30008KT 03/M03 A2995 RMK A01 T00251027  RH  068%=      5-min Rain = 0
KTAS 131257Z 30007KT 02/M03 A2995 RMK A01 T00241027  RH  069%=      5-min Rain = 0
KTAS 131258Z 30007KT 02/M03 A2995 RMK A01 T00231028  RH  069%=      5-min Rain = 0
KTAS 131259Z 30007KT 02/M03 A2995 RMK A01 T00231028  RH  069%=      5-min Rain = 0
KTAS 131300Z 30007KT 02/M03 A2995 RMK A01 T00221028  RH  070%=      5-min Rain = 0
KTAS 131301Z 30006KT 02/M03 A2995 RMK A01 T00211028  RH  070%=      5-min Rain = 0
KTAS 131302Z 30006KT 02/M03 A2995 RMK A01 T00211028  RH  070%=      5-min Rain = 0
KTAS 131303Z 30006KT 02/M03 A2995 RMK A01 T00211028  RH  070%=      5-min Rain = 0
KTAS 131304Z 30006KT 02/M03 A2995 RMK A01 T00211028  RH  070%=      5-min Rain = 0
KTAS 131305Z 30007KT 02/M03 A2995 RMK A01 T00211027  RH  070%=      5-min Rain = 0
KTAS 131306Z 30007KT 02/M03 A2995 RMK A01 T00211027  RH  070%=      5-min Rain = 0
KTAS 131307Z 30007KT 02/M03 A2995 RMK A01 T00201027  RH  071%=      5-min Rain = 0
KTAS 131308Z 30007KT 02/M03 A2995 RMK A01 T00201027  RH  071%=      5-min Rain = 0
KTAS 131309Z 30008KT 02/M03 A2995 RMK A01 T00201027  RH  071%=      5-min Rain = 0
KTAS 131310Z 30008KT 02/M03 A2995 RMK A01 T00201027  RH  071%=      5-min Rain = 0
KTAS 131311Z 30008KT 02/M03 A2995 RMK A01 T00211026  RH  071%=      5-min Rain = 0
KTAS 131312Z 30008KT 02/M03 A2995 RMK A01 T00211026  RH  071%=      5-min Rain = 0
KTAS 131313Z 30008KT 02/M03 A2995 RMK A01 T00211025  RH  071%=      5-min Rain = 0
KTAS 131314Z 30008KT 02/M03 A2995 RMK A01 T00221025  RH  071%=      5-min Rain = 0
KTAS 131315Z 30008KT 02/M02 A2995 RMK A01 T00231024  RH  071%=      5-min Rain = 0
KTAS 131316Z 29008KT 02/M02 A2994 RMK A01 T00241024  RH  071%=      5-min Rain = 0
KTAS 131317Z 29008KT 02/M02 A2994 RMK A01 T00241024  RH  071%=      5-min Rain = 0
KTAS 131318Z 29008KT 02/M02 A2994 RMK A01 T00241024  RH  071%=      5-min Rain = 0
KTAS 131319Z 29008KT 03/M02 A2994 RMK A01 T00251024  RH  071%=      5-min Rain = 0
KTAS 131320Z 29008KT 02/M02 A2994 RMK A01 T00241024  RH  071%=      5-min Rain = 0
KTAS 131321Z 30009KT 02/M02 A2995 RMK A01 T00241024  RH  071%=      5-min Rain = 0
KTAS 131322Z 30008KT 02/M02 A2995 RMK A01 T00231024  RH  071%=      5-min Rain = 0
KTAS 131323Z 30008KT 02/M02 A2995 RMK A01 T00221024  RH  071%=      5-min Rain = 0
KTAS 131324Z 30008KT 02/M02 A2995 RMK A01 T00221024  RH  072%=      5-min Rain = 0
KTAS 131325Z 30008KT 02/M02 A2995 RMK A01 T00221023  RH  072%=      5-min Rain = 0
KTAS 131326Z 30007KT 02/M02 A2995 RMK A01 T00231023  RH  072%=      5-min Rain = 0
KTAS 131327Z 30007KT 02/M02 A2995 RMK A01 T00231023  RH  071%=      5-min Rain = 0
KTAS 131328Z 30007KT 02/M02 A2995 RMK A01 T00241023  RH  071%=      5-min Rain = 0
KTAS 131329Z 30007KT 02/M02 A2995 RMK A01 T00241023  RH  071%=      5-min Rain = 0
KTAS 131330Z 30007KT 02/M02 A2995 RMK A01 T00241023  RH  071%=      5-min Rain = 0
KTAS 131331Z 30007KT 02/M02 A2995 RMK A01 T00231024  RH  071%=      5-min Rain = 0
KTAS 131332Z 30007KT 02/M02 A2995 RMK A01 T00231024  RH  071%=      5-min Rain = 0
KTAS 131333Z 30006KT 02/M02 A2995 RMK A01 T00221024  RH  071%=      5-min Rain = 0
KTAS 131334Z 30007KT 02/M02 A2995 RMK A01 T00221024  RH  072%=      5-min Rain = 0
KTAS 131335Z 30007KT 02/M02 A2995 RMK A01 T00221024  RH  072%=      5-min Rain = 0
KTAS 131336Z 30006KT 02/M02 A2995 RMK A01 T00211024  RH  072%=      5-min Rain = 0
KTAS 131337Z 30007KT 02/M02 A2995 RMK A01 T00211024  RH  072%=      5-min Rain = 0
KTAS 131338Z 30007KT 02/M02 A2995 RMK A01 T00211024  RH  072%=      5-min Rain = 0
KTAS 131339Z 30008KT 02/M02 A2995 RMK A01 T00211023  RH  072%=      5-min Rain = 0
KTAS 131340Z 29007KT 02/M02 A2995 RMK A01 T00221023  RH  072%=      5-min Rain = 0
KTAS 131341Z 29008KT 02/M02 A2995 RMK A01 T00221023  RH  072%=      5-min Rain = 0
KTAS 131342Z 29008KT 02/M02 A2995 RMK A01 T00221023  RH  072%=      5-min Rain = 0
KTAS 131343Z 29008KT 02/M02 A2995 RMK A01 T00231022  RH  072%=      5-min Rain = 0
KTAS 131344Z 29008KT 02/M02 A2995 RMK A01 T00231022  RH  072%=      5-min Rain = 0
KTAS 131345Z 29008KT 02/M02 A2995 RMK A01 T00241022  RH  072%=      5-min Rain = 0
KTAS 131346Z 29008KT 02/M02 A2995 RMK A01 T00241022  RH  072%=      5-min Rain = 0
KTAS 131347Z 29008KT 02/M02 A2995 RMK A01 T00231023  RH  072%=      5-min Rain = 0
KTAS 131348Z 29008KT 02/M02 A2995 RMK A01 T00231023  RH  072%=      5-min Rain = 0
KTAS 131349Z 29008KT 02/M02 A2995 RMK A01 T00231023  RH  072%=      5-min Rain = 0
KTAS 131350Z 29008KT 02/M02 A2995 RMK A01 T00231023  RH  072%=      5-min Rain = 0
KTAS 131351Z 29008KT 02/M02 A2995 RMK A01 T00221023  RH  072%=      5-min Rain = 0
KTAS 131352Z 29007KT 02/M02 A2995 RMK A01 T00211024  RH  072%=      5-min Rain = 0
KTAS 131353Z 29007KT 02/M02 A2995 RMK A01 T00201024  RH  072%=      5-min Rain = 0
KTAS 131354Z 29007KT 02/M03 A2995 RMK A01 T00191025  RH  073%=      5-min Rain = 0
KTAS 131355Z 29007KT 02/M03 A2995 RMK A01 T00181025  RH  073%=      5-min Rain = 0
KTAS 131356Z 29007KT 02/M02 A2995 RMK A01 T00171024  RH  074%=      5-min Rain = 0
KTAS 131357Z 29007KT 02/M02 A2995 RMK A01 T00181024  RH  074%=      5-min Rain = 0
KTAS 131358Z 30007KT 02/M02 A2995 RMK A01 T00181023  RH  074%=      5-min Rain = 0
KTAS 131359Z 29007KT 02/M02 A2996 RMK A01 T00181023  RH  074%=      5-min Rain = 0
KTAS 131400Z 30007KT 02/M02 A2996 RMK A01 T00191022  RH  074%=      5-min Rain = 0
KTAS 131401Z 29007KT 02/M02 A2996 RMK A01 T00201021  RH  074%=      5-min Rain = 0
KTAS 131402Z 29007KT 02/M02 A2996 RMK A01 T00211021  RH  074%=      5-min Rain = 0
KTAS 131403Z 29007KT 02/M02 A2995 RMK A01 T00221020  RH  073%=      5-min Rain = 0
KTAS 131404Z 29007KT 02/M02 A2995 RMK A01 T00231021  RH  073%=      5-min Rain = 0
KTAS 131405Z 29006KT 02/M02 A2995 RMK A01 T00231020  RH  073%=      5-min Rain = 0
KTAS 131406Z 29006KT 02/M02 A2995 RMK A01 T00241020  RH  073%=      5-min Rain = 0
KTAS 131407Z 29006KT 03/M02 A2995 RMK A01 T00251019  RH  073%=      5-min Rain = 0
KTAS 131408Z 29007KT 03/M02 A2995 RMK A01 T00251019  RH  072%=      5-min Rain = 0
KTAS 131409Z 30007KT 03/M02 A2995 RMK A01 T00261019  RH  072%=      5-min Rain = 0
KTAS 131410Z 30007KT 03/M02 A2995 RMK A01 T00271019  RH  072%=      5-min Rain = 0
KTAS 131411Z 30007KT 03/M02 A2995 RMK A01 T00281018  RH  072%=      5-min Rain = 0
KTAS 131412Z 30006KT 03/M02 A2995 RMK A01 T00291018  RH  072%=      5-min Rain = 0
KTAS 131413Z 30007KT 03/M02 A2996 RMK A01 T00301017  RH  071%=      5-min Rain = 0
KTAS 131414Z 30006KT 03/M02 A2996 RMK A01 T00311016  RH  071%=      5-min Rain = 0
KTAS 131415Z 30006KT 03/M02 A2996 RMK A01 T00321016  RH  071%=      5-min Rain = 0
KTAS 131416Z 30007KT 03/M02 A2996 RMK A01 T00331016  RH  070%=      5-min Rain = 0
KTAS 131417Z 30007KT 03/M02 A2996 RMK A01 T00331016  RH  070%=      5-min Rain = 0
KTAS 131418Z 30007KT 03/M02 A2996 RMK A01 T00341015  RH  070%=      5-min Rain = 0
KTAS 131419Z 30007KT 04/M02 A2996 RMK A01 T00351015  RH  070%=      5-min Rain = 0
KTAS 131420Z 30008KT 04/M01 A2996 RMK A01 T00371014  RH  069%=      5-min Rain = 0
KTAS 131421Z 30008KT 04/M01 A2996 RMK A01 T00381014  RH  069%=      5-min Rain = 0
KTAS 131422Z 30008KT 04/M01 A2996 RMK A01 T00401013  RH  068%=      5-min Rain = 0
KTAS 131423Z 30007KT 04/M01 A2996 RMK A01 T00411013  RH  068%=      5-min Rain = 0
KTAS 131424Z 29007KT 04/M01 A2996 RMK A01 T00421013  RH  068%=      5-min Rain = 0
KTAS 131425Z 29008KT 04/M01 A2996 RMK A01 T00431013  RH  067%=      5-min Rain = 0
KTAS 131426Z 29008KT 04/M01 A2996 RMK A01 T00431013  RH  067%=      5-min Rain = 0
KTAS 131427Z 29007KT 05/M01 A2995 RMK A01 T00451012  RH  067%=      5-min Rain = 0
KTAS 131428Z 29007KT 05/M01 A2996 RMK A01 T00451012  RH  066%=      5-min Rain = 0
KTAS 131429Z 29008KT 05/M01 A2996 RMK A01 T00461012  RH  066%=      5-min Rain = 0
KTAS 131430Z 30008KT 05/M01 A2996 RMK A01 T00471011  RH  066%=      5-min Rain = 0
KTAS 131431Z 30008KT 05/M01 A2996 RMK A01 T00481011  RH  065%=      5-min Rain = 0
KTAS 131432Z 30008KT 05/M01 A2996 RMK A01 T00501011  RH  065%=      5-min Rain = 0
KTAS 131433Z 30008KT 05/M01 A2996 RMK A01 T00511011  RH  064%=      5-min Rain = 0
KTAS 131434Z 30006KT 05/M01 A2996 RMK A01 T00521010  RH  064%=      5-min Rain = 0
KTAS 131435Z 30007KT 05/M01 A2995 RMK A01 T00541010  RH  064%=      5-min Rain = 0
KTAS 131436Z 29007KT 06/M01 A2995 RMK A01 T00551010  RH  063%=      5-min Rain = 0
KTAS 131437Z 29007KT 06/M01 A2995 RMK A01 T00561009  RH  063%=      5-min Rain = 0
KTAS 131438Z 29006KT 06/M01 A2995 RMK A01 T00581008  RH  062%=      5-min Rain = 0
KTAS 131439Z 29008KT 06/M01 A2995 RMK A01 T00591009  RH  062%=      5-min Rain = 0
KTAS 131440Z 29007KT 06/M01 A2996 RMK A01 T00601009  RH  061%=      5-min Rain = 0
KTAS 131441Z 29008KT 06/M01 A2996 RMK A01 T00621008  RH  061%=      5-min Rain = 0
KTAS 131442Z 29007KT 06/M01 A2996 RMK A01 T00631008  RH  061%=      5-min Rain = 0
KTAS 131443Z 29009KT 06/M01 A2996 RMK A01 T00641007  RH  060%=      5-min Rain = 0
KTAS 131444Z 29009KT 07/M01 A2996 RMK A01 T00661008  RH  059%=      5-min Rain = 0
KTAS 131445Z 29007KT 07/M01 A2996 RMK A01 T00671007  RH  059%=      5-min Rain = 0
KTAS 131446Z 30008KT 07/M01 A2997 RMK A01 T00681006  RH  059%=      5-min Rain = 0
KTAS 131447Z 30007KT 07/M01 A2997 RMK A01 T00691006  RH  059%=      5-min Rain = 0
KTAS 131448Z 30007KT 07/M01 A2997 RMK A01 T00711006  RH  058%=      5-min Rain = 0
KTAS 131449Z 29008KT 07/M01 A2997 RMK A01 T00721005  RH  058%=      5-min Rain = 0
KTAS 131450Z 30008KT 07/M01 A2997 RMK A01 T00741006  RH  057%=      5-min Rain = 0
KTAS 131451Z 30007KT 08/M01 A2996 RMK A01 T00751005  RH  057%=      5-min Rain = 0
KTAS 131452Z 30006KT 08/M00 A2997 RMK A01 T00771004  RH  056%=      5-min Rain = 0
KTAS 131453Z 31008KT 08/M00 A2997 RMK A01 T00791004  RH  056%=      5-min Rain = 0
KTAS 131454Z 30009KT 08/M01 A2997 RMK A01 T00801005  RH  055%=      5-min Rain = 0
KTAS 131455Z 31009KT 08/M01 A2997 RMK A01 T00821006  RH  054%=      5-min Rain = 0
KTAS 131456Z 31010KT 08/M01 A2998 RMK A01 T00831006  RH  054%=      5-min Rain = 0
KTAS 131457Z 31009KT 08/M01 A2998 RMK A01 T00841006  RH  053%=      5-min Rain = 0
KTAS 131458Z 31011KT 09/M01 A2998 RMK A01 T00851005  RH  053%=      5-min Rain = 0
KTAS 131459Z 31009KT 09/M01 A2997 RMK A01 T00851007  RH  052%=      5-min Rain = 0
KTAS 131500Z 31009KT 09/M01 A2997 RMK A01 T00861006  RH  052%=      5-min Rain = 0
KTAS 131501Z 31010KT 09/M01 A2997 RMK A01 T00861006  RH  052%=      5-min Rain = 0
KTAS 131502Z 31010KT 09/M01 A2997 RMK A01 T00871007  RH  052%=      5-min Rain = 0
KTAS 131503Z 30010KT 09/M01 A2997 RMK A01 T00881007  RH  052%=      5-min Rain = 0
KTAS 131504Z 30011KT 09/M01 A2997 RMK A01 T00881008  RH  051%=      5-min Rain = 0
KTAS 131505Z 30010KT 09/M01 A2997 RMK A01 T00891008  RH  051%=      5-min Rain = 0
KTAS 131506Z 30009KT 09/M01 A2997 RMK A01 T00901006  RH  051%=      5-min Rain = 0
KTAS 131507Z 30010KT 09/M01 A2997 RMK A01 T00921006  RH  051%=      5-min Rain = 0
KTAS 131508Z 29011KT 09/M01 A2997 RMK A01 T00931006  RH  050%=      5-min Rain = 0
KTAS 131509Z 30011KT 09/M01 A2997 RMK A01 T00931007  RH  050%=      5-min Rain = 0
KTAS 131510Z 29011KT 09/M01 A2997 RMK A01 T00941007  RH  049%=      5-min Rain = 0
KTAS 131511Z 29011KT 09/M01 A2996 RMK A01 T00941007  RH  049%=      5-min Rain = 0
KTAS 131512Z 30011KT 10/M01 A2996 RMK A01 T00951006  RH  049%=      5-min Rain = 0
KTAS 131513Z 29011KT 10/M01 A2996 RMK A01 T00961007  RH  049%=      5-min Rain = 0
KTAS 131514Z 30010G15KT 10/M01 A2997 RMK A01 T00971005  RH  049%=      5-min Rain = 0
KTAS 131515Z 29011KT 10/M01 A2997 RMK A01 T00991005  RH  048%=      5-min Rain = 0
KTAS 131516Z 30011KT 10/M01 A2997 RMK A01 T01001005  RH  048%=      5-min Rain = 0
KTAS 131517Z 29010KT 10/M01 A2996 RMK A01 T01011005  RH  048%=      5-min Rain = 0
KTAS 131518Z 30009KT 10/M00 A2996 RMK A01 T01031004  RH  048%=      5-min Rain = 0
KTAS 131519Z 30010KT 10/M00 A2996 RMK A01 T01041003  RH  047%=      5-min Rain = 0
KTAS 131520Z 29012KT 11/M00 A2996 RMK A01 T01051004  RH  047%=      5-min Rain = 0
KTAS 131521Z 30010KT 11/M00 A2996 RMK A01 T01061004  RH  046%=      5-min Rain = 0
KTAS 131522Z 30010KT 11/M00 A2996 RMK A01 T01071004  RH  046%=      5-min Rain = 0
KTAS 131523Z 30012KT 11/M00 A2996 RMK A01 T01081004  RH  046%=      5-min Rain = 0
KTAS 131524Z 30011KT 11/M01 A2996 RMK A01 T01081006  RH  045%=      5-min Rain = 0
KTAS 131525Z 30010KT 11/M00 A2996 RMK A01 T01091004  RH  046%=      5-min Rain = 0
KTAS 131526Z 30012KT 11/M01 A2996 RMK A01 T01091005  RH  045%=      5-min Rain = 0
KTAS 131527Z 30011KT 11/M00 A2996 RMK A01 T01101004  RH  045%=      5-min Rain = 0
KTAS 131528Z 30012KT 11/M01 A2996 RMK A01 T01111005  RH  045%=      5-min Rain = 0
KTAS 131529Z 30012KT 11/M01 A2996 RMK A01 T01111005  RH  045%=      5-min Rain = 0
KTAS 131530Z 30011KT 11/M00 A2997 RMK A01 T01111004  RH  045%=      5-min Rain = 0
KTAS 131531Z 30011KT 11/M01 A2997 RMK A01 T01121005  RH  044%=      5-min Rain = 0
KTAS 131532Z 30011KT 11/M00 A2997 RMK A01 T01131004  RH  044%=      5-min Rain = 0
KTAS 131533Z 30011KT 11/M01 A2997 RMK A01 T01131005  RH  044%=      5-min Rain = 0
KTAS 131534Z 30011KT 11/M01 A2997 RMK A01 T01131005  RH  044%=      5-min Rain = 0
KTAS 131535Z 30012KT 11/M01 A2997 RMK A01 T01141005  RH  044%=      5-min Rain = 0
KTAS 131536Z 29009KT 12/M00 A2997 RMK A01 T01151004  RH  044%=      5-min Rain = 0
KTAS 131537Z 29011KT 12/M00 A2997 RMK A01 T01171003  RH  044%=      5-min Rain = 0
KTAS 131538Z 30012KT 12/M00 A2997 RMK A01 T01181003  RH  043%=      5-min Rain = 0
KTAS 131539Z 30013KT 12/M01 A2997 RMK A01 T01171005  RH  043%=      5-min Rain = 0
KTAS 131540Z 30012KT 12/M01 A2997 RMK A01 T01161006  RH  043%=      5-min Rain = 0
KTAS 131541Z 30012KT 12/M01 A2997 RMK A01 T01161006  RH  043%=      5-min Rain = 0
KTAS 131542Z 30013KT 12/M01 A2997 RMK A01 T01161006  RH  043%=      5-min Rain = 0
KTAS 131543Z 30012KT 12/M01 A2997 RMK A01 T01171005  RH  043%=      5-min Rain = 0
KTAS 131544Z 30012KT 12/M01 A2997 RMK A01 T01181005  RH  043%=      5-min Rain = 0
KTAS 131545Z 30012KT 12/M01 A2997 RMK A01 T01171006  RH  043%=      5-min Rain = 0
KTAS 131546Z 30010KT 12/M01 A2997 RMK A01 T01171005  RH  043%=      5-min Rain = 0
KTAS 131547Z 30010KT 12/M00 A2997 RMK A01 T01191004  RH  043%=      5-min Rain = 0
KTAS 131548Z 30010KT 12/M00 A2997 RMK A01 T01191004  RH  043%=      5-min Rain = 0
KTAS 131549Z 30008KT 12/M00 A2997 RMK A01 T01201003  RH  043%=      5-min Rain = 0
KTAS 131550Z 31010KT 12/M00 A2997 RMK A01 T01221003  RH  042%=      5-min Rain = 0
KTAS 131551Z 30009KT 12/M00 A2997 RMK A01 T01231003  RH  042%=      5-min Rain = 0
KTAS 131552Z 30010KT 12/M00 A2997 RMK A01 T01231003  RH  042%=      5-min Rain = 0
KTAS 131553Z 30011KT 12/M00 A2997 RMK A01 T01241002  RH  042%=      5-min Rain = 0
KTAS 131554Z 31008KT 13/M00 A2997 RMK A01 T01261001  RH  042%=      5-min Rain = 0
KTAS 131555Z 30010KT 13/M00 A2997 RMK A01 T01271001  RH  041%=      5-min Rain = 0
KTAS 131556Z 30010KT 13/M00 A2997 RMK A01 T01281001  RH  041%=      5-min Rain = 0
KTAS 131557Z 30010KT 13/M00 A2997 RMK A01 T01291002  RH  041%=      5-min Rain = 0
KTAS 131558Z 31011KT 13/M00 A2997 RMK A01 T01291002  RH  041%=      5-min Rain = 0
KTAS 131559Z 30010KT 13/M00 A2996 RMK A01 T01301001  RH  040%=      5-min Rain = 0
KTAS 131600Z 30010KT 13/00 A2996 RMK A01 T01330000  RH  040%=      5-min Rain = 0
KTAS 131601Z 30010KT 13/00 A2996 RMK A01 T013300-0  RH  040%=      5-min Rain = 0
KTAS 131602Z 30009KT 13/00 A2996 RMK A01 T013400-0  RH  040%=      5-min Rain = 0
KTAS 131603Z 30011KT 13/M00 A2996 RMK A01 T01341001  RH  039%=      5-min Rain = 0
KTAS 131604Z 30011KT 13/M00 A2996 RMK A01 T01341001  RH  039%=      5-min Rain = 0
KTAS 131605Z 30008KT 13/00 A2997 RMK A01 T013400-0  RH  040%=      5-min Rain = 0
KTAS 131606Z 30010KT 14/00 A2997 RMK A01 T01360001  RH  040%=      5-min Rain = 0
KTAS 131607Z 30009KT 14/00 A2997 RMK A01 T01370000  RH  039%=      5-min Rain = 0
KTAS 131608Z 29009KT 14/00 A2996 RMK A01 T01380002  RH  039%=      5-min Rain = 0
KTAS 131609Z 29008KT 14/00 A2996 RMK A01 T01390002  RH  039%=      5-min Rain = 0
KTAS 131610Z 30009KT 14/00 A2996 RMK A01 T01410003  RH  039%=      5-min Rain = 0
KTAS 131611Z 30009KT 14/00 A2996 RMK A01 T01440004  RH  038%=      5-min Rain = 0
KTAS 131612Z 30010KT 15/00 A2996 RMK A01 T01450003  RH  038%=      5-min Rain = 0
KTAS 131613Z 31011KT 15/00 A2996 RMK A01 T01460003  RH  038%=      5-min Rain = 0
KTAS 131614Z 30010KT 15/01 A2996 RMK A01 T01490005  RH  037%=      5-min Rain = 0
KTAS 131615Z 30009KT 15/00 A2996 RMK A01 T01510004  RH  037%=      5-min Rain = 0
KTAS 131616Z 30012KT 15/00 A2996 RMK A01 T01520004  RH  036%=      5-min Rain = 0
KTAS 131617Z 30011KT 15/00 A2996 RMK A01 T01520003  RH  036%=      5-min Rain = 0
KTAS 131618Z 30010KT 15/00 A2996 RMK A01 T01530004  RH  036%=      5-min Rain = 0
KTAS 131619Z 29012KT 15/00 A2996 RMK A01 T01540004  RH  036%=      5-min Rain = 0
KTAS 131620Z 30011KT 16/00 A2996 RMK A01 T01560004  RH  036%=      5-min Rain = 0
KTAS 131621Z 30012KT 16/01 A2996 RMK A01 T01580006  RH  035%=      5-min Rain = 0
KTAS 131622Z 30011G18KT 16/01 A2997 RMK A01 T01600005  RH  035%=      5-min Rain = 0
KTAS 131623Z 30014G19KT 16/00 A2997 RMK A01 T01610004  RH  034%=      5-min Rain = 0
KTAS 131624Z 30013KT 16/00 A2997 RMK A01 T01620004  RH  034%=      5-min Rain = 0
KTAS 131625Z 30013KT 16/00 A2997 RMK A01 T01630004  RH  034%=      5-min Rain = 0
KTAS 131626Z 30014KT 16/00 A2996 RMK A01 T01630003  RH  034%=      5-min Rain = 0
KTAS 131627Z 30016KT 16/00 A2996 RMK A01 T01630002  RH  033%=      5-min Rain = 0
KTAS 131628Z 29014KT 16/00 A2995 RMK A01 T01630002  RH  033%=      5-min Rain = 0
KTAS 131629Z 29012KT 17/00 A2995 RMK A01 T01650004  RH  034%=      5-min Rain = 0
KTAS 131630Z 30015KT 17/00 A2995 RMK A01 T01660004  RH  033%=      5-min Rain = 0
KTAS 131631Z 30014KT 17/00 A2995 RMK A01 T01660003  RH  033%=      5-min Rain = 0
KTAS 131632Z 30012KT 17/00 A2995 RMK A01 T01670004  RH  033%=      5-min Rain = 0
KTAS 131633Z 30014KT 17/00 A2995 RMK A01 T01670003  RH  033%=      5-min Rain = 0
KTAS 131634Z 30014KT 17/00 A2995 RMK A01 T01680004  RH  033%=      5-min Rain = 0
KTAS 131635Z 29012KT 17/00 A2995 RMK A01 T01690004  RH  033%=      5-min Rain = 0
KTAS 131636Z 29013KT 17/01 A2995 RMK A01 T01720005  RH  032%=      5-min Rain = 0
KTAS 131637Z 29013KT 17/00 A2995 RMK A01 T01720004  RH  032%=      5-min Rain = 0
KTAS 131638Z 30016KT 17/00 A2995 RMK A01 T01730004  RH  032%=      5-min Rain = 0
KTAS 131639Z 29016KT 17/00 A2995 RMK A01 T01730004  RH  032%=      5-min Rain = 0
KTAS 131640Z 29013KT 17/00 A2995 RMK A01 T01740003  RH  032%=      5-min Rain = 0
KTAS 131641Z 30014KT 18/00 A2995 RMK A01 T01750004  RH  031%=      5-min Rain = 0
KTAS 131642Z 30016KT 18/00 A2995 RMK A01 T01760004  RH  031%=      5-min Rain = 0
KTAS 131643Z 30015KT 18/01 A2996 RMK A01 T01780005  RH  031%=      5-min Rain = 0
KTAS 131644Z 30012KT 18/01 A2995 RMK A01 T01800005  RH  031%=      5-min Rain = 0
KTAS 131645Z 30017KT 18/00 A2995 RMK A01 T01810004  RH  030%=      5-min Rain = 0
KTAS 131646Z 30015G20KT 18/00 A2995 RMK A01 T01800003  RH  030%=      5-min Rain = 0
KTAS 131647Z 30020KT 18/00 A2995 RMK A01 T01800002  RH  030%=      5-min Rain = 0
KTAS 131648Z 30018KT 18/00 A2995 RMK A01 T01790000  RH  030%=      5-min Rain = 0
KTAS 131649Z 30017KT 18/00 A2995 RMK A01 T01800002  RH  030%=      5-min Rain = 0
KTAS 131650Z 31018KT 18/00 A2995 RMK A01 T01810002  RH  030%=      5-min Rain = 0
KTAS 131651Z 30017KT 18/00 A2994 RMK A01 T01820003  RH  030%=      5-min Rain = 0
KTAS 131652Z 30019KT 18/00 A2994 RMK A01 T01830002  RH  030%=      5-min Rain = 0
KTAS 131653Z 30017G23KT 18/00 A2994 RMK A01 T01830002  RH  030%=      5-min Rain = 0
KTAS 131654Z 30016KT 18/00 A2994 RMK A01 T01840002  RH  029%=      5-min Rain = 0
KTAS 131655Z 30020KT 19/00 A2995 RMK A01 T01850003  RH  029%=      5-min Rain = 0
KTAS 131656Z 30020G27KT 18/00 A2995 RMK A01 T018400-0  RH  029%=      5-min Rain = 0
KTAS 131657Z 30021G29KT 18/00 A2995 RMK A01 T01840000  RH  029%=      5-min Rain = 0
KTAS 131658Z 30017G23KT 18/M00 A2995 RMK A01 T01831002  RH  029%=      5-min Rain = 0
KTAS 131659Z 30020G28KT 19/00 A2995 RMK A01 T01850001  RH  029%=      5-min Rain = 0
KTAS 131700Z 30021G26KT 18/M00 A2994 RMK A01 T01831003  RH  028%=      5-min Rain = 0
KTAS 131701Z 31019KT 18/M00 A2994 RMK A01 T01831002  RH  029%=      5-min Rain = 0
KTAS 131702Z 30020KT 18/M00 A2994 RMK A01 T01841001  RH  029%=      5-min Rain = 0
KTAS 131703Z 31021G27KT 18/M00 A2994 RMK A01 T01841002  RH  029%=      5-min Rain = 0
KTAS 131704Z 30022KT 18/M00 A2994 RMK A01 T01831002  RH  029%=      5-min Rain = 0
KTAS 131705Z 30020G26KT 18/M00 A2994 RMK A01 T01821002  RH  029%=      5-min Rain = 0
KTAS 131706Z 30023KT 18/M00 A2995 RMK A01 T01821001  RH  029%=      5-min Rain = 0
KTAS 131707Z 30021KT 18/M00 A2995 RMK A01 T01831001  RH  029%=      5-min Rain = 0
KTAS 131708Z 30024KT 18/M00 A2995 RMK A01 T01821001  RH  029%=      5-min Rain = 0
KTAS 131709Z 30020G25KT 18/00 A2995 RMK A01 T01840000  RH  029%=      5-min Rain = 0
KTAS 131710Z 31020KT 19/00 A2995 RMK A01 T018500-0  RH  029%=      5-min Rain = 0
KTAS 131711Z 31019G24KT 19/M00 A2995 RMK A01 T01861001  RH  028%=      5-min Rain = 0
KTAS 131712Z 31021G26KT 19/M00 A2995 RMK A01 T01861001  RH  028%=      5-min Rain = 0
KTAS 131713Z 30018KT 19/M00 A2995 RMK A01 T01851001  RH  028%=      5-min Rain = 0
KTAS 131714Z 30021G27KT 19/M00 A2995 RMK A01 T01871001  RH  028%=      5-min Rain = 0
KTAS 131715Z 30019G25KT 19/M00 A2994 RMK A01 T01871002  RH  028%=      5-min Rain = 0
KTAS 131716Z 31017KT 19/M00 A2995 RMK A01 T01881001  RH  028%=      5-min Rain = 0
KTAS 131717Z 31018G25KT 19/00 A2994 RMK A01 T01900000  RH  028%=      5-min Rain = 0
KTAS 131718Z 31021KT 19/M00 A2994 RMK A01 T01901001  RH  028%=      5-min Rain = 0
KTAS 131719Z 31020KT 19/M00 A2994 RMK A01 T01891002  RH  028%=      5-min Rain = 0
KTAS 131720Z 31018G24KT 19/00 A2994 RMK A01 T018900-0  RH  028%=      5-min Rain = 0
KTAS 131721Z 32022KT 19/00 A2994 RMK A01 T018900-0  RH  028%=      5-min Rain = 0
KTAS 131722Z 31018KT 19/00 A2994 RMK A01 T018900-0  RH  028%=      5-min Rain = 0
KTAS 131723Z 29019G25KT 19/00 A2994 RMK A01 T019100-0  RH  028%=      5-min Rain = 0
KTAS 131724Z 30023KT 19/M00 A2994 RMK A01 T01911001  RH  028%=      5-min Rain = 0
KTAS 131725Z 29019G25KT 19/00 A2994 RMK A01 T01920000  RH  028%=      5-min Rain = 0
KTAS 131726Z 30021KT 19/M00 A2994 RMK A01 T01931002  RH  027%=      5-min Rain = 0
KTAS 131727Z 30019G24KT 19/M00 A2994 RMK A01 T01921001  RH  027%=      5-min Rain = 0
KTAS 131728Z 31020G26KT 19/00 A2994 RMK A01 T01930000  RH  027%=      5-min Rain = 0
KTAS 131729Z 31021KT 19/M00 A2994 RMK A01 T01921001  RH  027%=      5-min Rain = 0
KTAS 131730Z 30021G26KT 19/M00 A2994 RMK A01 T01931001  RH  027%=      5-min Rain = 0
KTAS 131731Z 30018KT 19/M00 A2994 RMK A01 T01931001  RH  027%=      5-min Rain = 0
KTAS 131732Z 31018G26KT 20/00 A2994 RMK A01 T01960001  RH  027%=      5-min Rain = 0
KTAS 131733Z 31020G26KT 20/00 A2994 RMK A01 T019800-0  RH  027%=      5-min Rain = 0
KTAS 131734Z 31023KT 20/M00 A2994 RMK A01 T01971001  RH  026%=      5-min Rain = 0
KTAS 131735Z 30018G23KT 20/M00 A2994 RMK A01 T01951001  RH  027%=      5-min Rain = 0
KTAS 131736Z 30016KT 20/00 A2994 RMK A01 T01970002  RH  027%=      5-min Rain = 0
KTAS 131737Z 30021KT 20/00 A2994 RMK A01 T02000001  RH  026%=      5-min Rain = 0
KTAS 131738Z 30023KT 20/M00 A2994 RMK A01 T01971002  RH  026%=      5-min Rain = 0
KTAS 131739Z 30023G29KT 20/M00 A2994 RMK A01 T01971001  RH  026%=      5-min Rain = 0
KTAS 131740Z 30022KT 20/M00 A2994 RMK A01 T01971001  RH  026%=      5-min Rain = 0
KTAS 131741Z 30018G23KT 20/00 A2994 RMK A01 T019800-0  RH  026%=      5-min Rain = 0
KTAS 131742Z 29020G26KT 20/00 A2994 RMK A01 T02000000  RH  026%=      5-min Rain = 0
KTAS 131743Z 30019KT 20/M00 A2993 RMK A01 T02001001  RH  026%=      5-min Rain = 0
KTAS 131744Z 31022KT 20/M00 A2994 RMK A01 T02001001  RH  026%=      5-min Rain = 0
KTAS 131745Z 30022G28KT 20/M00 A2994 RMK A01 T01991003  RH  026%=      5-min Rain = 0
KTAS 131746Z 29022G27KT 20/M00 A2994 RMK A01 T01991001  RH  026%=      5-min Rain = 0
KTAS 131747Z 29020G26KT 20/00 A2993 RMK A01 T020000-0  RH  026%=      5-min Rain = 0
KTAS 131748Z 30022G28KT 20/M00 A2993 RMK A01 T02001002  RH  026%=      5-min Rain = 0
KTAS 131749Z 30023G28KT 20/M00 A2993 RMK A01 T01991003  RH  026%=      5-min Rain = 0
KTAS 131750Z 30025G31KT 20/M00 A2993 RMK A01 T01991003  RH  026%=      5-min Rain = 0
KTAS 131751Z 30022KT 20/M00 A2993 RMK A01 T01981003  RH  026%=      5-min Rain = 0
KTAS 131752Z 29028G33KT 20/M00 A2993 RMK A01 T01991003  RH  026%=      5-min Rain = 0
KTAS 131753Z 29025KT 20/M00 A2993 RMK A01 T01981004  RH  026%=      5-min Rain = 0
KTAS 131754Z 29024KT 20/M00 A2993 RMK A01 T01971003  RH  026%=      5-min Rain = 0
KTAS 131755Z 30021KT 20/M00 A2993 RMK A01 T01981002  RH  026%=      5-min Rain = 0
KTAS 131756Z 30024KT 20/M00 A2993 RMK A01 T02001001  RH  026%=      5-min Rain = 0
KTAS 131757Z 30025KT 20/M00 A2992 RMK A01 T02011002  RH  026%=      5-min Rain = 0
KTAS 131758Z 29022G28KT 20/M00 A2992 RMK A01 T02001002  RH  026%=      5-min Rain = 0
KTAS 131759Z 29023G28KT 20/M00 A2992 RMK A01 T02011002  RH  026%=      5-min Rain = 0
KTAS 131800Z 29025G32KT 20/M00 A2992 RMK A01 T02001003  RH  026%=      5-min Rain = 0
KTAS 131801Z 29027KT 20/M00 A2992 RMK A01 T02001002  RH  026%=      5-min Rain = 0
KTAS 131802Z 29024G29KT 20/M00 A2992 RMK A01 T01991003  RH  026%=      5-min Rain = 0
KTAS 131803Z 30021G32KT 20/M00 A2992 RMK A01 T02011002  RH  026%=      5-min Rain = 0
KTAS 131804Z 30026KT 20/M00 A2992 RMK A01 T02011004  RH  025%=      5-min Rain = 0
KTAS 131805Z 30022G29KT 20/M00 A2992 RMK A01 T02011004  RH  025%=      5-min Rain = 0
KTAS 131806Z 30019G25KT 20/M00 A2992 RMK A01 T02021003  RH  025%=      5-min Rain = 0
KTAS 131807Z 30022G28KT 20/M01 A2992 RMK A01 T02021005  RH  025%=      5-min Rain = 0
KTAS 131808Z 30022KT 20/M01 A2992 RMK A01 T02001005  RH  025%=      5-min Rain = 0
KTAS 131809Z 30025G30KT 20/M01 A2992 RMK A01 T01991006  RH  025%=      5-min Rain = 0
KTAS 131810Z 29021G26KT 20/M01 A2992 RMK A01 T01991005  RH  025%=      5-min Rain = 0
KTAS 131811Z 29022KT 20/M00 A2991 RMK A01 T02001004  RH  025%=      5-min Rain = 0
KTAS 131812Z 30023G28KT 20/M00 A2992 RMK A01 T02001004  RH  025%=      5-min Rain = 0
KTAS 131813Z 30022KT 20/M00 A2992 RMK A01 T02011004  RH  025%=      5-min Rain = 0
KTAS 131814Z 30016KT 20/M00 A2992 RMK A01 T02031001  RH  025%=      5-min Rain = 0
KTAS 131815Z 29021KT 21/M00 A2992 RMK A01 T02071001  RH  025%=      5-min Rain = 0
KTAS 131816Z 29025G31KT 21/M01 A2992 RMK A01 T02061005  RH  024%=      5-min Rain = 0
KTAS 131817Z 30023G28KT 20/M01 A2992 RMK A01 T02031006  RH  025%=      5-min Rain = 0
KTAS 131818Z 30026KT 20/M01 A2992 RMK A01 T02031005  RH  025%=      5-min Rain = 0
KTAS 131819Z 29027KT 20/M01 A2992 RMK A01 T02011006  RH  025%=      5-min Rain = 0
KTAS 131820Z 29024KT 20/M01 A2992 RMK A01 T01981006  RH  025%=      5-min Rain = 0
KTAS 131821Z 28019G26KT 20/M00 A2992 RMK A01 T01991004  RH  026%=      5-min Rain = 0
KTAS 131822Z 28024KT 20/M00 A2992 RMK A01 T02011004  RH  025%=      5-min Rain = 0
KTAS 131823Z 30027G33KT 20/M00 A2992 RMK A01 T02021004  RH  025%=      5-min Rain = 0
KTAS 131824Z 29023G28KT 20/M01 A2991 RMK A01 T02011005  RH  025%=      5-min Rain = 0
KTAS 131825Z 29024G29KT 20/M00 A2991 RMK A01 T02021004  RH  025%=      5-min Rain = 0
KTAS 131826Z 29024G29KT 20/M01 A2991 RMK A01 T02021005  RH  025%=      5-min Rain = 0
KTAS 131827Z 29022G29KT 20/M01 A2991 RMK A01 T02021005  RH  025%=      5-min Rain = 0
KTAS 131828Z 29026G32KT 21/M01 A2991 RMK A01 T02051005  RH  025%=      5-min Rain = 0
KTAS 131829Z 29023G29KT 20/M01 A2991 RMK A01 T02041006  RH  024%=      5-min Rain = 0
KTAS 131830Z 30021KT 21/M01 A2991 RMK A01 T02061005  RH  024%=      5-min Rain = 0
KTAS 131831Z 29023KT 21/M01 A2991 RMK A01 T02071007  RH  024%=      5-min Rain = 0
KTAS 131832Z 30024KT 21/M01 A2991 RMK A01 T02061007  RH  024%=      5-min Rain = 0
KTAS 131833Z 30021KT 21/M01 A2991 RMK A01 T02051007  RH  024%=      5-min Rain = 0
KTAS 131834Z 30020G25KT 20/M01 A2991 RMK A01 T02041007  RH  024%=      5-min Rain = 0
KTAS 131835Z 30020KT 20/M01 A2991 RMK A01 T02041006  RH  024%=      5-min Rain = 0
KTAS 131836Z 29019G26KT 21/M00 A2991 RMK A01 T02061004  RH  025%=      5-min Rain = 0
KTAS 131837Z 29020G27KT 21/M00 A2991 RMK A01 T02061004  RH  024%=      5-min Rain = 0
KTAS 131838Z 29020G29KT 21/M01 A299 RMK A01 T02051005  RH  025%=      5-min Rain = 0
KTAS 131839Z 29020KT 21/M00 A299 RMK A01 T02071003  RH  025%=      5-min Rain = 0
KTAS 131840Z 29028KT 21/M01 A299 RMK A01 T02081005  RH  024%=      5-min Rain = 0
KTAS 131841Z 29024G29KT 21/M01 A299 RMK A01 T02061005  RH  024%=      5-min Rain = 0
KTAS 131842Z 29025KT 21/M01 A299 RMK A01 T02071006  RH  024%=      5-min Rain = 0
KTAS 131843Z 29025G32KT 20/M01 A299 RMK A01 T02041007  RH  024%=      5-min Rain = 0
KTAS 131844Z 29021G28KT 20/M01 A299 RMK A01 T02041006  RH  025%=      5-min Rain = 0
KTAS 131845Z 29023G28KT 20/M01 A299 RMK A01 T02041007  RH  024%=      5-min Rain = 0
KTAS 131846Z 29025KT 20/M01 A299 RMK A01 T02041007  RH  024%=      5-min Rain = 0
KTAS 131847Z 30023G28KT 21/M01 A299 RMK A01 T02051007  RH  024%=      5-min Rain = 0
KTAS 131848Z 30020G25KT 21/M01 A299 RMK A01 T02061007  RH  024%=      5-min Rain = 0
KTAS 131849Z 30021KT 21/M01 A299 RMK A01 T02091005  RH  024%=      5-min Rain = 0
KTAS 131850Z 30026KT 21/M01 A299 RMK A01 T02101006  RH  023%=      5-min Rain = 0
KTAS 131851Z 29025KT 21/M01 A2989 RMK A01 T02091005  RH  024%=      5-min Rain = 0
KTAS 131852Z 29021G30KT 21/M00 A2989 RMK A01 T02101003  RH  024%=      5-min Rain = 0
KTAS 131853Z 29026KT 21/M01 A2989 RMK A01 T02111005  RH  024%=      5-min Rain = 0
KTAS 131854Z 29022G28KT 21/M01 A2989 RMK A01 T02101006  RH  024%=      5-min Rain = 0
KTAS 131855Z 30030KT 21/M01 A2989 RMK A01 T02091007  RH  024%=      5-min Rain = 0
KTAS 131856Z 30025G30KT 21/M01 A2989 RMK A01 T02071007  RH  024%=      5-min Rain = 0
KTAS 131857Z 30023G28KT 21/M01 A2989 RMK A01 T02081007  RH  024%=      5-min Rain = 0
KTAS 131858Z 29025G30KT 21/M01 A2988 RMK A01 T02091007  RH  023%=      5-min Rain = 0
KTAS 131859Z 29023G28KT 21/M01 A2988 RMK A01 T02081007  RH  024%=      5-min Rain = 0
KTAS 131900Z 29025G31KT 21/M01 A2988 RMK A01 T02071007  RH  024%=      5-min Rain = 0
KTAS 131901Z 29021G28KT 21/M01 A2988 RMK A01 T02071007  RH  024%=      5-min Rain = 0
KTAS 131902Z 29023KT 21/M01 A2988 RMK A01 T02091006  RH  024%=      5-min Rain = 0
KTAS 131903Z 30022KT 21/M01 A2988 RMK A01 T02091008  RH  023%=      5-min Rain = 0
KTAS 131904Z 29022KT 21/M01 A2988 RMK A01 T02101007  RH  023%=      5-min Rain = 0
KTAS 131905Z 30023KT 21/M01 A2988 RMK A01 T02111006  RH  023%=      5-min Rain = 0
KTAS 131906Z 30024G30KT 21/M01 A2988 RMK A01 T02111008  RH  023%=      5-min Rain = 0
KTAS 131907Z 29024G30KT 21/M01 A2988 RMK A01 T02091011  RH  023%=      5-min Rain = 0
KTAS 131908Z 30026KT 21/M01 A2988 RMK A01 T02081012  RH  023%=      5-min Rain = 0
KTAS 131909Z 30022KT 21/M01 A2988 RMK A01 T02071010  RH  023%=      5-min Rain = 0
KTAS 131910Z 29021KT 21/M01 A2987 RMK A01 T02081008  RH  023%=      5-min Rain = 0
KTAS 131911Z 30022G28KT 21/M01 A2987 RMK A01 T02091008  RH  023%=      5-min Rain = 0
KTAS 131912Z 30023G28KT 21/M01 A2987 RMK A01 T02081009  RH  023%=      5-min Rain = 0
KTAS 131913Z 30021G28KT 21/M01 A2987 RMK A01 T02051010  RH  024%=      5-min Rain = 0
KTAS 131914Z 30021KT 20/M01 A2987 RMK A01 T02041012  RH  023%=      5-min Rain = 0
KTAS 131915Z 30025KT 20/M01 A2987 RMK A01 T02041013  RH  023%=      5-min Rain = 0
KTAS 131916Z 31026KT 20/M01 A2987 RMK A01 T02041013  RH  023%=      5-min Rain = 0
KTAS 131917Z 30023KT 20/M01 A2987 RMK A01 T02031013  RH  023%=      5-min Rain = 0
KTAS 131918Z 30023G28KT 21/M01 A2987 RMK A01 T02051011  RH  024%=      5-min Rain = 0
KTAS 131919Z 30021G27KT 21/M01 A2986 RMK A01 T02061011  RH  023%=      5-min Rain = 0
KTAS 131920Z 30019G25KT 21/M01 A2987 RMK A01 T02071010  RH  023%=      5-min Rain = 0
KTAS 131921Z 31019G24KT 21/M01 A2986 RMK A01 T02091008  RH  023%=      5-min Rain = 0
KTAS 131922Z 31019KT 21/M01 A2987 RMK A01 T02101008  RH  023%=      5-min Rain = 0
KTAS 131923Z 30027G32KT 21/M01 A2987 RMK A01 T02081011  RH  023%=      5-min Rain = 0
KTAS 131924Z 30024G31KT 20/M01 A2987 RMK A01 T02041012  RH  023%=      5-min Rain = 0
KTAS 131925Z 30021G26KT 20/M01 A2987 RMK A01 T02021013  RH  023%=      5-min Rain = 0
KTAS 131926Z 30024G32KT 20/M01 A2987 RMK A01 T02021014  RH  023%=      5-min Rain = 0
KTAS 131927Z 30026G31KT 20/M02 A2987 RMK A01 T02021016  RH  023%=      5-min Rain = 0
KTAS 131928Z 29026G31KT 20/M02 A2987 RMK A01 T02021015  RH  023%=      5-min Rain = 0
KTAS 131929Z 29026G31KT 20/M01 A2987 RMK A01 T02001013  RH  024%=      5-min Rain = 0
KTAS 131930Z 30022G27KT 20/M01 A2987 RMK A01 T02001011  RH  024%=      5-min Rain = 0
KTAS 131931Z 30024KT 20/M01 A2987 RMK A01 T02001011  RH  024%=      5-min Rain = 0
KTAS 131932Z 30023G29KT 20/M01 A2987 RMK A01 T02011011  RH  024%=      5-min Rain = 0
KTAS 131933Z 30024KT 20/M01 A2987 RMK A01 T02031010  RH  024%=      5-min Rain = 0
KTAS 131934Z 30025KT 20/M01 A2987 RMK A01 T02021011  RH  024%=      5-min Rain = 0
KTAS 131935Z 30023KT 20/M01 A2987 RMK A01 T02021011  RH  024%=      5-min Rain = 0
KTAS 131936Z 30021KT 20/M01 A2987 RMK A01 T02041009  RH  024%=      5-min Rain = 0
KTAS 131937Z 31017KT 21/M01 A2987 RMK A01 T02081008  RH  023%=      5-min Rain = 0
KTAS 131938Z 30016G21KT 21/M01 A2987 RMK A01 T02111008  RH  023%=      5-min Rain = 0
KTAS 131939Z 30021G26KT 21/M01 A2987 RMK A01 T02111010  RH  023%=      5-min Rain = 0
KTAS 131940Z 31021G28KT 21/M01 A2987 RMK A01 T02111009  RH  023%=      5-min Rain = 0
KTAS 131941Z 30022G32KT 21/M01 A2987 RMK A01 T02131008  RH  023%=      5-min Rain = 0
KTAS 131942Z 31028KT 21/M01 A2987 RMK A01 T02111013  RH  022%=      5-min Rain = 0
KTAS 131943Z 31027KT 21/M01 A2986 RMK A01 T02091013  RH  022%=      5-min Rain = 0
KTAS 131944Z 30023G29KT 21/M01 A2986 RMK A01 T02091012  RH  023%=      5-min Rain = 0
KTAS 131945Z 31021KT 21/M01 A2986 RMK A01 T02111011  RH  023%=      5-min Rain = 0
KTAS 131946Z 31022KT 21/M01 A2986 RMK A01 T02131010  RH  022%=      5-min Rain = 0
KTAS 131947Z 30022G29KT 21/M01 A2986 RMK A01 T02131011  RH  022%=      5-min Rain = 0
KTAS 131948Z 31027G33KT 21/M01 A2986 RMK A01 T02111012  RH  022%=      5-min Rain = 0
KTAS 131949Z 31025G32KT 21/M01 A2986 RMK A01 T02091012  RH  023%=      5-min Rain = 0
KTAS 131950Z 30023G32KT 21/M01 A2986 RMK A01 T02111011  RH  023%=      5-min Rain = 0
KTAS 131951Z 30027G32KT 21/M01 A2986 RMK A01 T02101014  RH  022%=      5-min Rain = 0
KTAS 131952Z 31025KT 21/M01 A2986 RMK A01 T02091014  RH  022%=      5-min Rain = 0
KTAS 131953Z 31025G31KT 21/M01 A2986 RMK A01 T02091012  RH  023%=      5-min Rain = 0
KTAS 131954Z 31025G31KT 21/M02 A2986 RMK A01 T02091017  RH  022%=      5-min Rain = 0
KTAS 131955Z 31021KT 21/M01 A2987 RMK A01 T02101014  RH  022%=      5-min Rain = 0
KTAS 131956Z 31024G31KT 21/M01 A2987 RMK A01 T02121013  RH  022%=      5-min Rain = 0
KTAS 131957Z 31021G30KT 21/M01 A2987 RMK A01 T02131012  RH  022%=      5-min Rain = 0
KTAS 131958Z 31027G35KT 21/M02 A2987 RMK A01 T02131018  RH  021%=      5-min Rain = 0
KTAS 131959Z 31030G35KT 21/M02 A2987 RMK A01 T02101020  RH  021%=      5-min Rain = 0
KTAS 132000Z 31030G35KT 21/M02 A2987 RMK A01 T02081021  RH  021%=      5-min Rain = 0
KTAS 132001Z 30025G31KT 21/M02 A2986 RMK A01 T02071021  RH  021%=      5-min Rain = 0
KTAS 132002Z 30026G31KT 21/M02 A2986 RMK A01 T02091019  RH  022%=      5-min Rain = 0
KTAS 132003Z 31028G33KT 21/M02 A2986 RMK A01 T02091020  RH  021%=      5-min Rain = 0
KTAS 132004Z 31026G33KT 21/M02 A2986 RMK A01 T02091022  RH  021%=      5-min Rain = 0
KTAS 132005Z 31025G31KT 21/M02 A2986 RMK A01 T02091020  RH  021%=      5-min Rain = 0
KTAS 132006Z 31032G38KT 21/M02 A2986 RMK A01 T02081020  RH  021%=      5-min Rain = 0
KTAS 132007Z 31029G36KT 21/M03 A2986 RMK A01 T02071025  RH  021%=      5-min Rain = 0
KTAS 132008Z 31025G35KT 21/M02 A2986 RMK A01 T02071022  RH  021%=      5-min Rain = 0
KTAS 132009Z 31026G33KT 21/M02 A2986 RMK A01 T02061021  RH  022%=      5-min Rain = 0
KTAS 132010Z 30021G27KT 21/M02 A2986 RMK A01 T02061019  RH  022%=      5-min Rain = 0
KTAS 132011Z 31026G32KT 21/M02 A2986 RMK A01 T02061017  RH  022%=      5-min Rain = 0
KTAS 132012Z 31026G34KT 21/M02 A2986 RMK A01 T02071017  RH  022%=      5-min Rain = 0
KTAS 132013Z 31025KT 21/M02 A2986 RMK A01 T02061021  RH  022%=      5-min Rain = 0
KTAS 132014Z 32024G30KT 21/M02 A2986 RMK A01 T02051021  RH  022%=      5-min Rain = 0
KTAS 132015Z 31025G34KT 21/M02 A2986 RMK A01 T02051020  RH  022%=      5-min Rain = 0
KTAS 132016Z 31025G30KT 21/M02 A2986 RMK A01 T02051019  RH  022%=      5-min Rain = 0
KTAS 132017Z 31024G29KT 21/M02 A2986 RMK A01 T02051019  RH  022%=      5-min Rain = 0
KTAS 132018Z 31023G28KT 20/M02 A2986 RMK A01 T02041020  RH  022%=      5-min Rain = 0
KTAS 132019Z 31024KT 20/M02 A2986 RMK A01 T02041020  RH  022%=      5-min Rain = 0
KTAS 132020Z 30021G27KT 21/M02 A2986 RMK A01 T02051019  RH  022%=      5-min Rain = 0
KTAS 132021Z 30028KT 21/M02 A2986 RMK A01 T02051020  RH  022%=      5-min Rain = 0
KTAS 132022Z 30022KT 20/M02 A2986 RMK A01 T02031019  RH  022%=      5-min Rain = 0
KTAS 132023Z 31022G28KT 20/M02 A2986 RMK A01 T02031018  RH  022%=      5-min Rain = 0
KTAS 132024Z 30021G28KT 20/M02 A2986 RMK A01 T02031016  RH  023%=      5-min Rain = 0
KTAS 132025Z 31019G24KT 20/M02 A2987 RMK A01 T02041015  RH  023%=      5-min Rain = 0
KTAS 132026Z 31020G25KT 20/M02 A2987 RMK A01 T02041017  RH  023%=      5-min Rain = 0
KTAS 132027Z 31026KT 20/M02 A2987 RMK A01 T02031018  RH  023%=      5-min Rain = 0
KTAS 132028Z 31022G29KT 20/M02 A2987 RMK A01 T02021019  RH  023%=      5-min Rain = 0
KTAS 132029Z 30024KT 20/M02 A2987 RMK A01 T02011018  RH  023%=      5-min Rain = 0
KTAS 132030Z 30018KT 20/M02 A2986 RMK A01 T02021016  RH  023%=      5-min Rain = 0
KTAS 132031Z 30020G26KT 20/M02 A2987 RMK A01 T02021016  RH  023%=      5-min Rain = 0
KTAS 132032Z 30020G25KT 20/M02 A2987 RMK A01 T02031016  RH  023%=      5-min Rain = 0
KTAS 132033Z 30019KT 20/M01 A2987 RMK A01 T02031014  RH  023%=      5-min Rain = 0
KTAS 132034Z 30022KT 20/M01 A2987 RMK A01 T02031014  RH  023%=      5-min Rain = 0
KTAS 132035Z 30027G32KT 20/M02 A2987 RMK A01 T02031017  RH  023%=      5-min Rain = 0
KTAS 132036Z 31021G27KT 20/M02 A2987 RMK A01 T02021017  RH  023%=      5-min Rain = 0
KTAS 132037Z 31022KT 20/M02 A2987 RMK A01 T02021018  RH  023%=      5-min Rain = 0
KTAS 132038Z 31025G32KT 20/M02 A2987 RMK A01 T02031019  RH  022%=      5-min Rain = 0
KTAS 132039Z 31025KT 20/M02 A2987 RMK A01 T02031021  RH  022%=      5-min Rain = 0
KTAS 132040Z 31027G34KT 20/M02 A2987 RMK A01 T02031023  RH  022%=      5-min Rain = 0
KTAS 132041Z 30027KT 20/M02 A2987 RMK A01 T02021023  RH  022%=      5-min Rain = 0
KTAS 132042Z 30027KT 20/M02 A2987 RMK A01 T02021023  RH  022%=      5-min Rain = 0
KTAS 132043Z 30023G29KT 20/M02 A2987 RMK A01 T02021022  RH  022%=      5-min Rain = 0
KTAS 132044Z 31027G32KT 20/M02 A2987 RMK A01 T02031021  RH  022%=      5-min Rain = 0
KTAS 132045Z 31025G31KT 20/M02 A2987 RMK A01 T02031020  RH  022%=      5-min Rain = 0
KTAS 132046Z 30023G30KT 20/M02 A2987 RMK A01 T02021020  RH  022%=      5-min Rain = 0
KTAS 132047Z 31023G28KT 20/M02 A2987 RMK A01 T02021020  RH  022%=      5-min Rain = 0
KTAS 132048Z 30023G29KT 20/M02 A2987 RMK A01 T02021020  RH  022%=      5-min Rain = 0
KTAS 132049Z 31022G27KT 20/M02 A2986 RMK A01 T02011021  RH  022%=      5-min Rain = 0
KTAS 132050Z 31018G24KT 20/M02 A2986 RMK A01 T02001020  RH  023%=      5-min Rain = 0
KTAS 132051Z 31023G30KT 20/M02 A2986 RMK A01 T02001020  RH  023%=      5-min Rain = 0
KTAS 132052Z 31023G28KT 20/M02 A2986 RMK A01 T01991020  RH  023%=      5-min Rain = 0
KTAS 132053Z 31022KT 20/M02 A2986 RMK A01 T01991020  RH  023%=      5-min Rain = 0
KTAS 132054Z 31020KT 20/M02 A2986 RMK A01 T01991019  RH  023%=      5-min Rain = 0
KTAS 132055Z 31021G26KT 20/M02 A2987 RMK A01 T01981021  RH  023%=      5-min Rain = 0
KTAS 132056Z 31020G25KT 20/M02 A2987 RMK A01 T01981020  RH  023%=      5-min Rain = 0
KTAS 132057Z 31022KT 20/M02 A2987 RMK A01 T01981022  RH  023%=      5-min Rain = 0
KTAS 132058Z 31020KT 20/M02 A2987 RMK A01 T01981022  RH  022%=      5-min Rain = 0
KTAS 132059Z 31016KT 20/M02 A2986 RMK A01 T01991020  RH  023%=      5-min Rain = 0
KTAS 132100Z 31018G29KT 20/M02 A2986 RMK A01 T02001018  RH  023%=      5-min Rain = 0
KTAS 132101Z 31023KT 20/M02 A2986 RMK A01 T02011018  RH  023%=      5-min Rain = 0
KTAS 132102Z 31023KT 20/M02 A2986 RMK A01 T02011017  RH  023%=      5-min Rain = 0
KTAS 132103Z 31023G29KT 20/M02 A2986 RMK A01 T02001017  RH  023%=      5-min Rain = 0
KTAS 132104Z 31021G26KT 20/M02 A2986 RMK A01 T02011016  RH  023%=      5-min Rain = 0
KTAS 132105Z 31022G29KT 20/M02 A2986 RMK A01 T02031016  RH  023%=      5-min Rain = 0
KTAS 132106Z 31022G27KT 20/M02 A2986 RMK A01 T02041016  RH  023%=      5-min Rain = 0
KTAS 132107Z 31023KT 21/M02 A2986 RMK A01 T02061017  RH  022%=      5-min Rain = 0
KTAS 132108Z 31024KT 21/M02 A2986 RMK A01 T02051017  RH  022%=      5-min Rain = 0
KTAS 132109Z 32018KT 21/M02 A2987 RMK A01 T02071015  RH  022%=      5-min Rain = 0
KTAS 132110Z 32019KT 21/M01 A2986 RMK A01 T02081014  RH  022%=      5-min Rain = 0
KTAS 132111Z 32020G25KT 21/M02 A2987 RMK A01 T02081015  RH  022%=      5-min Rain = 0
KTAS 132112Z 32022KT 21/M02 A2987 RMK A01 T02081015  RH  022%=      5-min Rain = 0
KTAS 132113Z 32019G24KT 21/M02 A2987 RMK A01 T02071016  RH  022%=      5-min Rain = 0
KTAS 132114Z 31020G26KT 21/M02 A2987 RMK A01 T02071015  RH  022%=      5-min Rain = 0
KTAS 132115Z 32020G26KT 21/M02 A2987 RMK A01 T02071015  RH  022%=      5-min Rain = 0
KTAS 132116Z 33024KT 21/M02 A2987 RMK A01 T02081016  RH  022%=      5-min Rain = 0
KTAS 132117Z 32022KT 21/M02 A2987 RMK A01 T02091015  RH  022%=      5-min Rain = 0
KTAS 132118Z 32021KT 21/M02 A2986 RMK A01 T02091015  RH  022%=      5-min Rain = 0
KTAS 132119Z 32019KT 21/M02 A2986 RMK A01 T02101015  RH  022%=      5-min Rain = 0
KTAS 132120Z 32022KT 21/M02 A2987 RMK A01 T02111016  RH  022%=      5-min Rain = 0
KTAS 132121Z 32022KT 21/M02 A2987 RMK A01 T02111015  RH  022%=      5-min Rain = 0
KTAS 132122Z 32023KT 21/M02 A2986 RMK A01 T02101016  RH  022%=      5-min Rain = 0
KTAS 132123Z 32019KT 21/M02 A2986 RMK A01 T02091015  RH  022%=      5-min Rain = 0
KTAS 132124Z 32020KT 21/M02 A2986 RMK A01 T02101015  RH  022%=      5-min Rain = 0
KTAS 132125Z 32021G28KT 21/M01 A2986 RMK A01 T02121013  RH  022%=      5-min Rain = 0
KTAS 132126Z 31023G28KT 21/M02 A2986 RMK A01 T02111015  RH  022%=      5-min Rain = 0
KTAS 132127Z 31022KT 21/M02 A2986 RMK A01 T02111016  RH  022%=      5-min Rain = 0
KTAS 132128Z 32021KT 21/M02 A2986 RMK A01 T02111017  RH  022%=      5-min Rain = 0
KTAS 132129Z 32020KT 21/M02 A2987 RMK A01 T02121017  RH  021%=      5-min Rain = 0
KTAS 132130Z 32020KT 21/M02 A2987 RMK A01 T02131017  RH  021%=      5-min Rain = 0
KTAS 132131Z 32020KT 21/M02 A2987 RMK A01 T02131017  RH  021%=      5-min Rain = 0
KTAS 132132Z 32020G25KT 21/M02 A2987 RMK A01 T02131016  RH  021%=      5-min Rain = 0
KTAS 132133Z 32022KT 21/M02 A2987 RMK A01 T02131015  RH  022%=      5-min Rain = 0
KTAS 132134Z 31020G27KT 21/M02 A2987 RMK A01 T02121015  RH  022%=      5-min Rain = 0
KTAS 132135Z 31019KT 21/M02 A2986 RMK A01 T02111015  RH  022%=      5-min Rain = 0
KTAS 132136Z 32018G25KT 21/M01 A2986 RMK A01 T02121014  RH  022%=      5-min Rain = 0
KTAS 132137Z 32022KT 21/M01 A2986 RMK A01 T02121014  RH  022%=      5-min Rain = 0
KTAS 132138Z 32020KT 21/M01 A2986 RMK A01 T02111014  RH  022%=      5-min Rain = 0
KTAS 132139Z 31018KT 21/M01 A2986 RMK A01 T02121013  RH  022%=      5-min Rain = 0
KTAS 132140Z 31017KT 21/M01 A2986 RMK A01 T02131014  RH  022%=      5-min Rain = 0
KTAS 132141Z 31015G20KT 21/M01 A2986 RMK A01 T02131013  RH  022%=      5-min Rain = 0
KTAS 132142Z 30018KT 21/M01 A2986 RMK A01 T02131014  RH  022%=      5-min Rain = 0
KTAS 132143Z 31017KT 21/M02 A2986 RMK A01 T02111015  RH  022%=      5-min Rain = 0
KTAS 132144Z 31017KT 21/M01 A2986 RMK A01 T02101014  RH  022%=      5-min Rain = 0
KTAS 132145Z 31016G23KT 21/M01 A2986 RMK A01 T02091014  RH  022%=      5-min Rain = 0
KTAS 132146Z 31018KT 21/M02 A2987 RMK A01 T02071016  RH  022%=      5-min Rain = 0
KTAS 132147Z 31018G23KT 21/M02 A2987 RMK A01 T02051015  RH  023%=      5-min Rain = 0
KTAS 132148Z 31018KT 20/M02 A2987 RMK A01 T02041015  RH  023%=      5-min Rain = 0
KTAS 132149Z 32014KT 20/M02 A2986 RMK A01 T02021015  RH  023%=      5-min Rain = 0
KTAS 132150Z 32012G17KT 20/M01 A2986 RMK A01 T02021014  RH  023%=      5-min Rain = 0
KTAS 132151Z 32016KT 20/M01 A2986 RMK A01 T02011013  RH  024%=      5-min Rain = 0
KTAS 132152Z 31014KT 20/M01 A2986 RMK A01 T02001014  RH  024%=      5-min Rain = 0
KTAS 132153Z 32012KT 20/M01 A2986 RMK A01 T01991014  RH  024%=      5-min Rain = 0
KTAS 132154Z 32015KT 20/M01 A2986 RMK A01 T01991014  RH  024%=      5-min Rain = 0
KTAS 132155Z 32016KT 20/M01 A2986 RMK A01 T01991014  RH  024%=      5-min Rain = 0
KTAS 132156Z 32015KT 20/M02 A2986 RMK A01 T01991015  RH  024%=      5-min Rain = 0
KTAS 132157Z 32015KT 20/M01 A2986 RMK A01 T01991014  RH  024%=      5-min Rain = 0
KTAS 132158Z 31015KT 20/M02 A2986 RMK A01 T01991015  RH  024%=      5-min Rain = 0
KTAS 132159Z 31016KT 20/M02 A2986 RMK A01 T01991015  RH  024%=      5-min Rain = 0
KTAS 132200Z 30011KT 20/M01 A2986 RMK A01 T01991014  RH  024%=      5-min Rain = 0
KTAS 132201Z 30010KT 20/M01 A2986 RMK A01 T01991014  RH  024%=      5-min Rain = 0
KTAS 132202Z 31012KT 20/M02 A2986 RMK A01 T01981015  RH  024%=      5-min Rain = 0
KTAS 132203Z 31009KT 20/M01 A2986 RMK A01 T01981014  RH  024%=      5-min Rain = 0
KTAS 132204Z 30014G21KT 20/M02 A2986 RMK A01 T01971015  RH  024%=      5-min Rain = 0
KTAS 132205Z 30015G20KT 20/M02 A2986 RMK A01 T01991023  RH  022%=      5-min Rain = 0
KTAS 132206Z 30017KT 20/M03 A2986 RMK A01 T02001027  RH  021%=      5-min Rain = 0
KTAS 132207Z 30019G24KT 20/M03 A2986 RMK A01 T02011030  RH  021%=      5-min Rain = 0
KTAS 132208Z 30018KT 20/M03 A2986 RMK A01 T02031031  RH  020%=      5-min Rain = 0
KTAS 132209Z 30016KT 20/M03 A2986 RMK A01 T02041032  RH  020%=      5-min Rain = 0
KTAS 132210Z 30018KT 20/M03 A2986 RMK A01 T02041033  RH  020%=      5-min Rain = 0
KTAS 132211Z 30017G22KT 20/M03 A2986 RMK A01 T02041033  RH  020%=      5-min Rain = 0
KTAS 132212Z 30017G24KT 21/M03 A2986 RMK A01 T02051031  RH  020%=      5-min Rain = 0
KTAS 132213Z 31018KT 20/M03 A2986 RMK A01 T02041032  RH  020%=      5-min Rain = 0
KTAS 132214Z 31015KT 21/M03 A2987 RMK A01 T02051030  RH  020%=      5-min Rain = 0
KTAS 132215Z 32015KT 21/M02 A2987 RMK A01 T02051024  RH  021%=      5-min Rain = 0
KTAS 132216Z 32011KT 21/M02 A2987 RMK A01 T02061019  RH  022%=      5-min Rain = 0
KTAS 132217Z 32012KT 21/M02 A2987 RMK A01 T02071016  RH  022%=      5-min Rain = 0
KTAS 132218Z 32012KT 21/M02 A2987 RMK A01 T02061015  RH  023%=      5-min Rain = 0
KTAS 132219Z 32013G19KT 21/M02 A2987 RMK A01 T02061017  RH  022%=      5-min Rain = 0
KTAS 132220Z 31015G20KT 21/M02 A2987 RMK A01 T02071023  RH  021%=      5-min Rain = 0
KTAS 132221Z 31014KT 21/M03 A2987 RMK A01 T02071025  RH  021%=      5-min Rain = 0
KTAS 132222Z 31015KT 21/M03 A2987 RMK A01 T02081026  RH  021%=      5-min Rain = 0
KTAS 132223Z 31017KT 21/M03 A2987 RMK A01 T02071028  RH  020%=      5-min Rain = 0
KTAS 132224Z 31017KT 21/M03 A2987 RMK A01 T02071029  RH  020%=      5-min Rain = 0
KTAS 132225Z 31016KT 21/M03 A2987 RMK A01 T02071030  RH  020%=      5-min Rain = 0
KTAS 132226Z 31019KT 21/M03 A2987 RMK A01 T02071031  RH  020%=      5-min Rain = 0
KTAS 132227Z 31019KT 21/M03 A2987 RMK A01 T02071032  RH  020%=      5-min Rain = 0
KTAS 132228Z 31016G21KT 21/M03 A2987 RMK A01 T02071033  RH  020%=      5-min Rain = 0
KTAS 132229Z 30014KT 21/M03 A2987 RMK A01 T02071032  RH  020%=      5-min Rain = 0
KTAS 132230Z 30014KT 21/M03 A2987 RMK A01 T02071031  RH  020%=      5-min Rain = 0
KTAS 132231Z 31015G21KT 21/M03 A2987 RMK A01 T02071032  RH  020%=      5-min Rain = 0
KTAS 132232Z 31017KT 21/M03 A2987 RMK A01 T02071032  RH  020%=      5-min Rain = 0
KTAS 132233Z 31019KT 21/M03 A2987 RMK A01 T02061032  RH  020%=      5-min Rain = 0
KTAS 132234Z 31021KT 21/M03 A2987 RMK A01 T02061032  RH  020%=      5-min Rain = 0
KTAS 132235Z 31018KT 21/M03 A2987 RMK A01 T02061031  RH  020%=      5-min Rain = 0
KTAS 132236Z 30015KT 21/M03 A2987 RMK A01 T02051031  RH  020%=      5-min Rain = 0
KTAS 132237Z 30018G24KT 21/M03 A2987 RMK A01 T02051030  RH  020%=      5-min Rain = 0
KTAS 132238Z 30018KT 21/M03 A2987 RMK A01 T02051031  RH  020%=      5-min Rain = 0
KTAS 132239Z 30018KT 21/M03 A2987 RMK A01 T02051031  RH  020%=      5-min Rain = 0
KTAS 132240Z 30017KT 21/M03 A2987 RMK A01 T02051030  RH  020%=      5-min Rain = 0
KTAS 132241Z 30016KT 21/M03 A2987 RMK A01 T02051030  RH  020%=      5-min Rain = 0
KTAS 132242Z 30014KT 21/M03 A2987 RMK A01 T02051029  RH  020%=      5-min Rain = 0
KTAS 132243Z 30014KT 20/M03 A2987 RMK A01 T02041029  RH  021%=      5-min Rain = 0
KTAS 132244Z 30016KT 20/M03 A2987 RMK A01 T02041029  RH  021%=      5-min Rain = 0
KTAS 132245Z 31017KT 20/M03 A2987 RMK A01 T02041029  RH  021%=      5-min Rain = 0
KTAS 132246Z 31017G22KT 20/M03 A2987 RMK A01 T02031028  RH  021%=      5-min Rain = 0
KTAS 132247Z 31015KT 20/M03 A2987 RMK A01 T02031028  RH  021%=      5-min Rain = 0
KTAS 132248Z 31014KT 20/M03 A2987 RMK A01 T02031028  RH  021%=      5-min Rain = 0
KTAS 132249Z 31017G23KT 20/M03 A2987 RMK A01 T02021028  RH  021%=      5-min Rain = 0
KTAS 132250Z 30015KT 20/M03 A2987 RMK A01 T02021029  RH  021%=      5-min Rain = 0
KTAS 132251Z 31017KT 20/M03 A2988 RMK A01 T02021028  RH  021%=      5-min Rain = 0
KTAS 132252Z 30014KT 20/M03 A2988 RMK A01 T02011028  RH  021%=      5-min Rain = 0
KTAS 132253Z 31014KT 20/M03 A2988 RMK A01 T02001028  RH  021%=      5-min Rain = 0
KTAS 132254Z 31015KT 20/M03 A2988 RMK A01 T01991029  RH  021%=      5-min Rain = 0
KTAS 132255Z 30013KT 20/M03 A2988 RMK A01 T01991029  RH  021%=      5-min Rain = 0
KTAS 132256Z 30015G20KT 20/M03 A2988 RMK A01 T01991030  RH  021%=      5-min Rain = 0
KTAS 132257Z 30012KT 20/M03 A2988 RMK A01 T01991031  RH  021%=      5-min Rain = 0
KTAS 132258Z 30012KT 20/M03 A2988 RMK A01 T01991031  RH  021%=      5-min Rain = 0
KTAS 132259Z 30013KT 20/M03 A2988 RMK A01 T01991032  RH  021%=      5-min Rain = 0
KTAS 132300Z 30013KT 20/M03 A2988 RMK A01 T01981032  RH  021%=      5-min Rain = 0
KTAS 132301Z 30013KT 20/M03 A2988 RMK A01 T01981032  RH  021%=      5-min Rain = 0
KTAS 132302Z 30013KT 20/M03 A2988 RMK A01 T01971032  RH  021%=      5-min Rain = 0
KTAS 132303Z 30011KT 20/M03 A2988 RMK A01 T01961032  RH  021%=      5-min Rain = 0
KTAS 132304Z 30012KT 20/M03 A2988 RMK A01 T01961033  RH  021%=      5-min Rain = 0
KTAS 132305Z 31012KT 20/M03 A2988 RMK A01 T01951033  RH  021%=      5-min Rain = 0
KTAS 132306Z 31014KT 20/M03 A2988 RMK A01 T01951033  RH  021%=      5-min Rain = 0
KTAS 132307Z 31014KT 20/M03 A2988 RMK A01 T01951034  RH  021%=      5-min Rain = 0
KTAS 132308Z 31013KT 19/M03 A2987 RMK A01 T01941034  RH  021%=      5-min Rain = 0
KTAS 132309Z 31013KT 19/M03 A2987 RMK A01 T01931034  RH  021%=      5-min Rain = 0
KTAS 132310Z 31014KT 19/M04 A2987 RMK A01 T01931035  RH  021%=      5-min Rain = 0
KTAS 132311Z 31013KT 19/M03 A2987 RMK A01 T01931034  RH  021%=      5-min Rain = 0
KTAS 132312Z 31014KT 19/M03 A2987 RMK A01 T01921034  RH  021%=      5-min Rain = 0
KTAS 132313Z 30012KT 19/M03 A2987 RMK A01 T01921034  RH  021%=      5-min Rain = 0
KTAS 132314Z 31012KT 19/M03 A2987 RMK A01 T01911034  RH  021%=      5-min Rain = 0
KTAS 132315Z 31010KT 19/M03 A2987 RMK A01 T01901034  RH  022%=      5-min Rain = 0
KTAS 132316Z 30010KT 19/M03 A2987 RMK A01 T01891034  RH  022%=      5-min Rain = 0
KTAS 132317Z 30010G15KT 19/M04 A2987 RMK A01 T01881035  RH  022%=      5-min Rain = 0
KTAS 132318Z 30009KT 19/M03 A2987 RMK A01 T01881034  RH  022%=      5-min Rain = 0
KTAS 132319Z 30012KT 19/M04 A2987 RMK A01 T01871035  RH  022%=      5-min Rain = 0
KTAS 132320Z 29009KT 19/M03 A2987 RMK A01 T01871034  RH  022%=      5-min Rain = 0
KTAS 132321Z 29010KT 19/M04 A2987 RMK A01 T01861035  RH  022%=      5-min Rain = 0
KTAS 132322Z 30009KT 19/M04 A2987 RMK A01 T01851035  RH  022%=      5-min Rain = 0
KTAS 132323Z 30011KT 18/M04 A2987 RMK A01 T01841035  RH  022%=      5-min Rain = 0
KTAS 132324Z 30010KT 18/M04 A2987 RMK A01 T01831036  RH  022%=      5-min Rain = 0
KTAS 132325Z 29012KT 18/M04 A2987 RMK A01 T01831036  RH  022%=      5-min Rain = 0
KTAS 132326Z 29010KT 18/M04 A2987 RMK A01 T01831036  RH  022%=      5-min Rain = 0
KTAS 132327Z 30009KT 18/M04 A2987 RMK A01 T01821035  RH  023%=      5-min Rain = 0
KTAS 132328Z 30011KT 18/M04 A2987 RMK A01 T01811036  RH  023%=      5-min Rain = 0
KTAS 132329Z 30009KT 18/M04 A2987 RMK A01 T01801036  RH  023%=      5-min Rain = 0
KTAS 132330Z 30010KT 18/M04 A2987 RMK A01 T01801036  RH  023%=      5-min Rain = 0
KTAS 132331Z 29010KT 18/M04 A2987 RMK A01 T01801037  RH  023%=      5-min Rain = 0
KTAS 132332Z 29011KT 18/M04 A2987 RMK A01 T01801037  RH  023%=      5-min Rain = 0
KTAS 132333Z 29011KT 18/M04 A2987 RMK A01 T01801037  RH  023%=      5-min Rain = 0
KTAS 132334Z 29010KT 18/M04 A2987 RMK A01 T01791037  RH  023%=      5-min Rain = 0
KTAS 132335Z 29010KT 18/M04 A2987 RMK A01 T01781037  RH  023%=      5-min Rain = 0
KTAS 132336Z 29010KT 18/M04 A2987 RMK A01 T01761036  RH  023%=      5-min Rain = 0
KTAS 132337Z 28010KT 17/M04 A2987 RMK A01 T01741036  RH  024%=      5-min Rain = 0
KTAS 132338Z 28010KT 17/M04 A2987 RMK A01 T01721037  RH  024%=      5-min Rain = 0
KTAS 132339Z 28009KT 17/M04 A2987 RMK A01 T01721037  RH  024%=      5-min Rain = 0
KTAS 132340Z 29010KT 17/M04 A2987 RMK A01 T01701037  RH  024%=      5-min Rain = 0
KTAS 132341Z 28010KT 17/M04 A2987 RMK A01 T01691037  RH  024%=      5-min Rain = 0
KTAS 132342Z 29009KT 17/M04 A2987 RMK A01 T01681037  RH  024%=      5-min Rain = 0
KTAS 132343Z 28009KT 17/M04 A2988 RMK A01 T01661038  RH  025%=      5-min Rain = 0
KTAS 132344Z 28009KT 16/M04 A2987 RMK A01 T01641038  RH  025%=      5-min Rain = 0
KTAS 132345Z 28009KT 16/M04 A2987 RMK A01 T01631038  RH  025%=      5-min Rain = 0
KTAS 132346Z 29009KT 16/M04 A2987 RMK A01 T01621038  RH  025%=      5-min Rain = 0
KTAS 132347Z 28009KT 16/M04 A2987 RMK A01 T01621038  RH  025%=      5-min Rain = 0
KTAS 132348Z 29009KT 16/M04 A2988 RMK A01 T01611038  RH  025%=      5-min Rain = 0
KTAS 132349Z 29010KT 16/M04 A2988 RMK A01 T01591038  RH  026%=      5-min Rain = 0
KTAS 132350Z 29010KT 16/M04 A2988 RMK A01 T01591038  RH  026%=      5-min Rain = 0
KTAS 132351Z 28009KT 16/M04 A2988 RMK A01 T01581038  RH  026%=      5-min Rain = 0
KTAS 132352Z 28009KT 16/M04 A2988 RMK A01 T01571038  RH  026%=      5-min Rain = 0
KTAS 132353Z 28009KT 16/M04 A2988 RMK A01 T01561037  RH  026%=      5-min Rain = 0
KTAS 132354Z 28009KT 16/M04 A2988 RMK A01 T01551037  RH  026%=      5-min Rain = 0
KTAS 132355Z 28009KT 15/M04 A2988 RMK A01 T01541037  RH  027%=      5-min Rain = 0
KTAS 132356Z 28009KT 15/M04 A2988 RMK A01 T01521037  RH  027%=      5-min Rain = 0
KTAS 132357Z 28009KT 15/M04 A2988 RMK A01 T01511037  RH  027%=      5-min Rain = 0
KTAS 132358Z 28009KT 15/M04 A2988 RMK A01 T01501037  RH  027%=      5-min Rain = 0
KTAS 132359Z 28009KT 15/M04 A2988 RMK A01 T01481036  RH  028%=      5-min Rain = 0
KTAS 140000Z 28009KT 15/M04 A2988 RMK A01 T01471036  RH  028%=      5-min Rain = 0
KTAS 140001Z 28009KT 15/M04 A2988 RMK A01 T01461036  RH  028%=      5-min Rain = 0
KTAS 140002Z 28009KT 15/M04 A2988 RMK A01 T01461036  RH  028%=      5-min Rain = 0
KTAS 140003Z 28009KT 15/M04 A2988 RMK A01 T01451036  RH  028%=      5-min Rain = 0
KTAS 140004Z 28008KT 15/M04 A2988 RMK A01 T01451036  RH  028%=      5-min Rain = 0
KTAS 140005Z 28008KT 14/M04 A2988 RMK A01 T01441036  RH  028%=      5-min Rain = 0
KTAS 140006Z 28008KT 14/M04 A2988 RMK A01 T01441036  RH  029%=      5-min Rain = 0
KTAS 140007Z 28008KT 14/M04 A2988 RMK A01 T01441036  RH  029%=      5-min Rain = 0
KTAS 140008Z 28008KT 14/M04 A2988 RMK A01 T01431036  RH  029%=      5-min Rain = 0
KTAS 140009Z 28008KT 14/M04 A2988 RMK A01 T01421036  RH  029%=      5-min Rain = 0
KTAS 140010Z 28007KT 14/M04 A2988 RMK A01 T01401036  RH  029%=      5-min Rain = 0
KTAS 140011Z 28007KT 14/M04 A2988 RMK A01 T01391037  RH  029%=      5-min Rain = 0
KTAS 140012Z 29006KT 14/M04 A2988 RMK A01 T01371037  RH  030%=      5-min Rain = 0
KTAS 140013Z 30004KT 14/M04 A2988 RMK A01 T01351038  RH  030%=      5-min Rain = 0
KTAS 140014Z 35004KT 13/M04 A2988 RMK A01 T01321039  RH  030%=      5-min Rain = 0
KTAS 140015Z 35005KT 13/M04 A2988 RMK A01 T01291040  RH  031%=      5-min Rain = 0
KTAS 140016Z 34005KT 13/M04 A2988 RMK A01 T01271041  RH  031%=      5-min Rain = 0
KTAS 140017Z 34005KT 13/M04 A2988 RMK A01 T01251041  RH  031%=      5-min Rain = 0
KTAS 140018Z 33006KT 12/M04 A2989 RMK A01 T01241041  RH  031%=      5-min Rain = 0
KTAS 140019Z 32006KT 12/M04 A2989 RMK A01 T01231041  RH  032%=      5-min Rain = 0
KTAS 140020Z 31007KT 12/M04 A2989 RMK A01 T01231040  RH  032%=      5-min Rain = 0
KTAS 140021Z 31006KT 13/M04 A2989 RMK A01 T01271039  RH  031%=      5-min Rain = 0
KTAS 140022Z 30006KT 13/M04 A2989 RMK A01 T01291040  RH  030%=      5-min Rain = 0
KTAS 140023Z 30007KT 13/M04 A2989 RMK A01 T01311040  RH  030%=      5-min Rain = 0
KTAS 140024Z 31005KT 13/M04 A2988 RMK A01 T01321040  RH  030%=      5-min Rain = 0
KTAS 140025Z 30005KT 13/M04 A2988 RMK A01 T01321040  RH  030%=      5-min Rain = 0
KTAS 140026Z 30005KT 13/M04 A2988 RMK A01 T01321040  RH  030%=      5-min Rain = 0
KTAS 140027Z 30005KT 13/M04 A2988 RMK A01 T01311040  RH  030%=      5-min Rain = 0
KTAS 140028Z 29005KT 13/M04 A2988 RMK A01 T01311040  RH  030%=      5-min Rain = 0
KTAS 140029Z 29004KT 13/M04 A2988 RMK A01 T01301040  RH  030%=      5-min Rain = 0
KTAS 140030Z 29004KT 13/M04 A2988 RMK A01 T01301040  RH  031%=      5-min Rain = 0
KTAS 140031Z 30004KT 13/M04 A2988 RMK A01 T01291040  RH  031%=      5-min Rain = 0
KTAS 140032Z 30004KT 13/M04 A2988 RMK A01 T01281040  RH  031%=      5-min Rain = 0
KTAS 140033Z 30005KT 13/M04 A2988 RMK A01 T01281040  RH  031%=      5-min Rain = 0
KTAS 140034Z 30005KT 13/M04 A2988 RMK A01 T01281039  RH  031%=      5-min Rain = 0
KTAS 140035Z 30005KT 13/M04 A2988 RMK A01 T01281039  RH  031%=      5-min Rain = 0
KTAS 140036Z 29005KT 13/M04 A2988 RMK A01 T01281039  RH  031%=      5-min Rain = 0
KTAS 140037Z 29005KT 13/M04 A2988 RMK A01 T01291039  RH  031%=      5-min Rain = 0
KTAS 140038Z 30005KT 13/M04 A2989 RMK A01 T01291039  RH  031%=      5-min Rain = 0
KTAS 140039Z 30005KT 13/M04 A2989 RMK A01 T01291038  RH  031%=      5-min Rain = 0
KTAS 140040Z 30005KT 13/M04 A2989 RMK A01 T01291038  RH  031%=      5-min Rain = 0
KTAS 140041Z 30006KT 13/M04 A2989 RMK A01 T01291038  RH  031%=      5-min Rain = 0
KTAS 140042Z 30005KT 13/M04 A2989 RMK A01 T01291039  RH  031%=      5-min Rain = 0
KTAS 140043Z 31005KT 13/M04 A2989 RMK A01 T01291039  RH  031%=      5-min Rain = 0
KTAS 140044Z 31006KT 13/M04 A2989 RMK A01 T01301039  RH  031%=      5-min Rain = 0
KTAS 140045Z 31006KT 13/M04 A2989 RMK A01 T01301040  RH  030%=      5-min Rain = 0
KTAS 140046Z 32006KT 13/M04 A2989 RMK A01 T01291041  RH  030%=      5-min Rain = 0
KTAS 140047Z 33006KT 13/M04 A2989 RMK A01 T01271043  RH  030%=      5-min Rain = 0
KTAS 140048Z 33006KT 12/M04 A2989 RMK A01 T01231044  RH  031%=      5-min Rain = 0
KTAS 140049Z 33006KT 12/M04 A2989 RMK A01 T01201044  RH  032%=      5-min Rain = 0
KTAS 140050Z 33006KT 12/M04 A2989 RMK A01 T01181043  RH  032%=      5-min Rain = 0
KTAS 140051Z 33006KT 12/M04 A2989 RMK A01 T01171043  RH  032%=      5-min Rain = 0
KTAS 140052Z 33006KT 12/M04 A2989 RMK A01 T01171042  RH  033%=      5-min Rain = 0
KTAS 140053Z 33006KT 12/M04 A2989 RMK A01 T01181042  RH  033%=      5-min Rain = 0
KTAS 140054Z 34006KT 12/M04 A2989 RMK A01 T01181042  RH  032%=      5-min Rain = 0
KTAS 140055Z 33007KT 12/M04 A2989 RMK A01 T01171042  RH  032%=      5-min Rain = 0
KTAS 140056Z 33006KT 12/M04 A2989 RMK A01 T01171042  RH  033%=      5-min Rain = 0
KTAS 140057Z 31008G13KT 12/M04 A2989 RMK A01 T01191041  RH  033%=      5-min Rain = 0
KTAS 140058Z 32006KT 13/M04 A2989 RMK A01 T01251039  RH  032%=      5-min Rain = 0
KTAS 140059Z 33005KT 13/M04 A2989 RMK A01 T01251039  RH  032%=      5-min Rain = 0
KTAS 140100Z 32006KT 12/M04 A2989 RMK A01 T01241038  RH  032%=      5-min Rain = 0
KTAS 140101Z 32005KT 12/M04 A2989 RMK A01 T01221039  RH  032%=      5-min Rain = 0
KTAS 140102Z 31006KT 12/M04 A299 RMK A01 T01211039  RH  033%=      5-min Rain = 0
KTAS 140103Z 31007KT 12/M04 A299 RMK A01 T01211039  RH  032%=      5-min Rain = 0
KTAS 140104Z 31007KT 12/M04 A299 RMK A01 T01211040  RH  032%=      5-min Rain = 0
KTAS 140105Z 31008KT 12/M04 A299 RMK A01 T01221039  RH  032%=      5-min Rain = 0
KTAS 140106Z 31008KT 12/M04 A299 RMK A01 T01241039  RH  032%=      5-min Rain = 0
KTAS 140107Z 31007KT 13/M04 A299 RMK A01 T01271039  RH  031%=      5-min Rain = 0
KTAS 140108Z 31007KT 13/M04 A299 RMK A01 T01281038  RH  031%=      5-min Rain = 0
KTAS 140109Z 31006KT 13/M04 A299 RMK A01 T01281038  RH  031%=      5-min Rain = 0
KTAS 140110Z 31006KT 13/M04 A2989 RMK A01 T01281038  RH  031%=      5-min Rain = 0
KTAS 140111Z 31006KT 13/M04 A2989 RMK A01 T01271039  RH  031%=      5-min Rain = 0
KTAS 140112Z 31006KT 13/M04 A2989 RMK A01 T01261039  RH  031%=      5-min Rain = 0
KTAS 140113Z 31007KT 13/M04 A299 RMK A01 T01251039  RH  032%=      5-min Rain = 0
KTAS 140114Z 31006KT 12/M04 A299 RMK A01 T01241039  RH  032%=      5-min Rain = 0
KTAS 140115Z 31006KT 12/M04 A299 RMK A01 T01221039  RH  032%=      5-min Rain = 0
KTAS 140116Z 31006KT 12/M04 A299 RMK A01 T01221038  RH  033%=      5-min Rain = 0
KTAS 140117Z 31006KT 12/M04 A299 RMK A01 T01201039  RH  033%=      5-min Rain = 0
KTAS 140118Z 31006KT 12/M04 A299 RMK A01 T01191038  RH  033%=      5-min Rain = 0
KTAS 140119Z 31005KT 12/M04 A299 RMK A01 T01191038  RH  033%=      5-min Rain = 0
KTAS 140120Z 31005KT 12/M04 A299 RMK A01 T01181038  RH  033%=      5-min Rain = 0
KTAS 140121Z 31005KT 12/M04 A299 RMK A01 T01181039  RH  033%=      5-min Rain = 0
KTAS 140122Z 31005KT 12/M04 A299 RMK A01 T01171038  RH  033%=      5-min Rain = 0
KTAS 140123Z 32004KT 12/M04 A299 RMK A01 T01171039  RH  033%=      5-min Rain = 0
KTAS 140124Z 32004KT 12/M04 A299 RMK A01 T01161039  RH  034%=      5-min Rain = 0
KTAS 140125Z 33004KT 11/M04 A299 RMK A01 T01141039  RH  034%=      5-min Rain = 0
KTAS 140126Z 35004KT 11/M04 A299 RMK A01 T01131039  RH  034%=      5-min Rain = 0
KTAS 140127Z 00003KT 11/M04 A299 RMK A01 T01111040  RH  034%=      5-min Rain = 0
KTAS 140128Z 00004KT 11/M04 A299 RMK A01 T01101040  RH  035%=      5-min Rain = 0
KTAS 140129Z 00003KT 11/M04 A299 RMK A01 T01091040  RH  035%=      5-min Rain = 0
KTAS 140130Z 36003KT 11/M04 A299 RMK A01 T01091039  RH  035%=      5-min Rain = 0
KTAS 140131Z 36003KT 11/M04 A299 RMK A01 T01091038  RH  035%=      5-min Rain = 0
KTAS 140132Z 34002KT 11/M04 A2991 RMK A01 T01091038  RH  035%=      5-min Rain = 0
KTAS 140133Z 32002KT 11/M04 A299 RMK A01 T01101038  RH  035%=      5-min Rain = 0
KTAS 140134Z 32002KT 11/M04 A299 RMK A01 T01121037  RH  035%=      5-min Rain = 0
KTAS 140135Z 31002KT 11/M04 A299 RMK A01 T01131037  RH  035%=      5-min Rain = 0
KTAS 140136Z 33002KT 11/M04 A299 RMK A01 T01141037  RH  034%=      5-min Rain = 0
KTAS 140137Z 32001KT 12/M04 A299 RMK A01 T01151037  RH  034%=      5-min Rain = 0
KTAS 140138Z 32003KT 12/M04 A299 RMK A01 T01161036  RH  034%=      5-min Rain = 0
KTAS 140139Z 30003KT 12/M04 A299 RMK A01 T01171036  RH  034%=      5-min Rain = 0
KTAS 140140Z 30003KT 12/M04 A299 RMK A01 T01181036  RH  034%=      5-min Rain = 0
KTAS 140141Z 31003KT 12/M04 A299 RMK A01 T01191036  RH  034%=      5-min Rain = 0
KTAS 140142Z 30003KT 12/M04 A299 RMK A01 T01191035  RH  034%=      5-min Rain = 0
KTAS 140143Z 29004KT 12/M04 A299 RMK A01 T01201036  RH  034%=      5-min Rain = 0
KTAS 140144Z 29004KT 12/M04 A299 RMK A01 T01201036  RH  034%=      5-min Rain = 0
KTAS 140145Z 28004KT 12/M04 A299 RMK A01 T01191036  RH  034%=      5-min Rain = 0
KTAS 140146Z 29004KT 12/M04 A299 RMK A01 T01191036  RH  034%=      5-min Rain = 0
KTAS 140147Z 29004KT 12/M04 A299 RMK A01 T01181036  RH  034%=      5-min Rain = 0
KTAS 140148Z 29004KT 12/M04 A299 RMK A01 T01181036  RH  034%=      5-min Rain = 0
KTAS 140149Z 29005KT 12/M04 A299 RMK A01 T01161036  RH  034%=      5-min Rain = 0
KTAS 140150Z 28004KT 12/M04 A299 RMK A01 T01151036  RH  035%=      5-min Rain = 0
KTAS 140151Z 28004KT 11/M04 A2991 RMK A01 T01131036  RH  035%=      5-min Rain = 0
KTAS 140152Z 28005KT 11/M04 A2991 RMK A01 T01121036  RH  035%=      5-min Rain = 0
KTAS 140153Z 28005KT 11/M04 A2991 RMK A01 T01101036  RH  036%=      5-min Rain = 0
KTAS 140154Z 28006KT 11/M04 A2991 RMK A01 T01091035  RH  036%=      5-min Rain = 0
KTAS 140155Z 28006KT 11/M04 A2991 RMK A01 T01071035  RH  037%=      5-min Rain = 0
KTAS 140156Z 28006KT 10/M03 A2991 RMK A01 T01041034  RH  038%=      5-min Rain = 0
KTAS 140157Z 28007KT 10/M03 A2991 RMK A01 T01021033  RH  038%=      5-min Rain = 0
KTAS 140158Z 28007KT 10/M03 A2991 RMK A01 T01001033  RH  039%=      5-min Rain = 0
KTAS 140159Z 29006KT 10/M03 A2991 RMK A01 T00981033  RH  040%=      5-min Rain = 0
KTAS 140200Z 30006KT 10/M03 A2991 RMK A01 T00961032  RH  040%=      5-min Rain = 0
KTAS 140201Z 30006KT 09/M03 A2992 RMK A01 T00941033  RH  041%=      5-min Rain = 0
KTAS 140202Z 31006KT 09/M03 A2992 RMK A01 T00921032  RH  042%=      5-min Rain = 0
KTAS 140203Z 31006KT 09/M03 A2992 RMK A01 T00911031  RH  042%=      5-min Rain = 0
KTAS 140204Z 31006KT 09/M03 A2992 RMK A01 T00891031  RH  043%=      5-min Rain = 0
KTAS 140205Z 31007KT 09/M03 A2992 RMK A01 T00881030  RH  043%=      5-min Rain = 0
KTAS 140206Z 31006KT 09/M03 A2992 RMK A01 T00871029  RH  044%=      5-min Rain = 0
KTAS 140207Z 32006KT 09/M03 A2992 RMK A01 T00861029  RH  044%=      5-min Rain = 0
KTAS 140208Z 34007KT 08/M03 A2992 RMK A01 T00841030  RH  044%=      5-min Rain = 0
KTAS 140209Z 35008KT 08/M03 A2992 RMK A01 T00821031  RH  045%=      5-min Rain = 0
KTAS 140210Z 01009KT 08/M03 A2993 RMK A01 T00791032  RH  046%=      5-min Rain = 0
KTAS 140211Z 01009KT 08/M03 A2992 RMK A01 T00761031  RH  047%=      5-min Rain = 0
KTAS 140212Z 00009KT 08/M03 A2992 RMK A01 T00771028  RH  047%=      5-min Rain = 0
KTAS 140213Z 36008KT 08/M03 A2992 RMK A01 T00791027  RH  047%=      5-min Rain = 0
KTAS 140214Z 35008KT 08/M03 A2993 RMK A01 T00821026  RH  046%=      5-min Rain = 0
KTAS 140215Z 35008KT 08/M03 A2992 RMK A01 T00841026  RH  046%=      5-min Rain = 0
KTAS 140216Z 33009KT 09/M03 A2992 RMK A01 T00861026  RH  045%=      5-min Rain = 0
KTAS 140217Z 32008KT 09/M03 A2992 RMK A01 T00891026  RH  044%=      5-min Rain = 0
KTAS 140218Z 32010KT 10/M03 A2992 RMK A01 T00951026  RH  043%=      5-min Rain = 0
KTAS 140219Z 31011KT 10/M03 A2992 RMK A01 T01031026  RH  040%=      5-min Rain = 0
KTAS 140220Z 31009KT 11/M03 A2992 RMK A01 T01091026  RH  039%=      5-min Rain = 0
KTAS 140221Z 31010KT 11/M03 A2992 RMK A01 T01121027  RH  038%=      5-min Rain = 0
KTAS 140222Z 31010KT 12/M03 A2992 RMK A01 T01151027  RH  037%=      5-min Rain = 0
KTAS 140223Z 30013KT 12/M03 A2992 RMK A01 T01191028  RH  036%=      5-min Rain = 0
KTAS 140224Z 30011KT 12/M03 A2992 RMK A01 T01241029  RH  034%=      5-min Rain = 0
KTAS 140225Z 30010KT 13/M03 A2992 RMK A01 T01261029  RH  034%=      5-min Rain = 0
KTAS 140226Z 30011KT 12/M03 A2992 RMK A01 T01241030  RH  034%=      5-min Rain = 0
KTAS 140227Z 30010KT 12/M03 A2992 RMK A01 T01231030  RH  034%=      5-min Rain = 0
KTAS 140228Z 30009KT 12/M03 A2992 RMK A01 T01221030  RH  035%=      5-min Rain = 0
KTAS 140229Z 31009KT 12/M03 A2992 RMK A01 T01201030  RH  035%=      5-min Rain = 0
KTAS 140230Z 31008KT 12/M03 A2992 RMK A01 T01181030  RH  035%=      5-min Rain = 0
KTAS 140231Z 31007KT 12/M03 A2992 RMK A01 T01151031  RH  036%=      5-min Rain = 0
KTAS 140232Z 31007KT 11/M03 A2992 RMK A01 T01121031  RH  037%=      5-min Rain = 0
KTAS 140233Z 31006KT 11/M03 A2992 RMK A01 T01101031  RH  037%=      5-min Rain = 0
KTAS 140234Z 31006KT 11/M03 A2992 RMK A01 T01071031  RH  038%=      5-min Rain = 0
KTAS 140235Z 30006KT 11/M03 A2992 RMK A01 T01051032  RH  038%=      5-min Rain = 0
KTAS 140236Z 30007KT 10/M03 A2992 RMK A01 T01041031  RH  038%=      5-min Rain = 0
KTAS 140237Z 30007KT 10/M03 A2992 RMK A01 T01031032  RH  039%=      5-min Rain = 0
KTAS 140238Z 30007KT 10/M03 A2992 RMK A01 T01021031  RH  039%=      5-min Rain = 0
KTAS 140239Z 30006KT 10/M03 A2992 RMK A01 T01001031  RH  039%=      5-min Rain = 0
KTAS 140240Z 30006KT 10/M03 A2992 RMK A01 T00991031  RH  040%=      5-min Rain = 0
KTAS 140241Z 30006KT 10/M03 A2992 RMK A01 T00981032  RH  040%=      5-min Rain = 0
KTAS 140242Z 30006KT 10/M03 A2992 RMK A01 T00961032  RH  040%=      5-min Rain = 0
KTAS 140243Z 30006KT 10/M03 A2992 RMK A01 T00951032  RH  041%=      5-min Rain = 0
KTAS 140244Z 30006KT 09/M03 A2992 RMK A01 T00931032  RH  041%=      5-min Rain = 0
KTAS 140245Z 31005KT 09/M03 A2993 RMK A01 T00921032  RH  042%=      5-min Rain = 0
KTAS 140246Z 31005KT 09/M03 A2993 RMK A01 T00911032  RH  042%=      5-min Rain = 0
KTAS 140247Z 31005KT 09/M03 A2992 RMK A01 T00891032  RH  042%=      5-min Rain = 0
KTAS 140248Z 31005KT 09/M03 A2992 RMK A01 T00881032  RH  043%=      5-min Rain = 0
KTAS 140249Z 31005KT 09/M03 A2992 RMK A01 T00861033  RH  043%=      5-min Rain = 0
KTAS 140250Z 31004KT 09/M03 A2992 RMK A01 T00851033  RH  043%=      5-min Rain = 0
KTAS 140251Z 31004KT 09/M03 A2992 RMK A01 T00851032  RH  044%=      5-min Rain = 0
KTAS 140252Z 31005KT 08/M03 A2992 RMK A01 T00841032  RH  044%=      5-min Rain = 0
KTAS 140253Z 31005KT 08/M03 A2992 RMK A01 T00841031  RH  044%=      5-min Rain = 0
KTAS 140254Z 30005KT 08/M03 A2992 RMK A01 T00841031  RH  044%=      5-min Rain = 0
KTAS 140255Z 30004KT 08/M03 A2992 RMK A01 T00841031  RH  044%=      5-min Rain = 0
KTAS 140256Z 30004KT 08/M03 A2992 RMK A01 T00841030  RH  044%=      5-min Rain = 0
KTAS 140257Z 29004KT 08/M03 A2992 RMK A01 T00841031  RH  044%=      5-min Rain = 0
KTAS 140258Z 28004KT 09/M03 A2992 RMK A01 T00851031  RH  044%=      5-min Rain = 0
KTAS 140259Z 28005KT 09/M03 A2992 RMK A01 T00851031  RH  044%=      5-min Rain = 0
KTAS 140300Z 28005KT 08/M03 A2992 RMK A01 T00841031  RH  044%=      5-min Rain = 0
KTAS 140301Z 28005KT 08/M03 A2992 RMK A01 T00831031  RH  044%=      5-min Rain = 0
KTAS 140302Z 28005KT 08/M03 A2992 RMK A01 T00821031  RH  045%=      5-min Rain = 0
KTAS 140303Z 29005KT 08/M03 A2992 RMK A01 T00821031  RH  045%=      5-min Rain = 0
KTAS 140304Z 29005KT 08/M03 A2992 RMK A01 T00811031  RH  045%=      5-min Rain = 0
KTAS 140305Z 29004KT 08/M03 A2992 RMK A01 T00811031  RH  045%=      5-min Rain = 0
KTAS 140306Z 28005KT 08/M03 A2992 RMK A01 T00811032  RH  045%=      5-min Rain = 0
KTAS 140307Z 28005KT 08/M03 A2992 RMK A01 T00801031  RH  045%=      5-min Rain = 0
KTAS 140308Z 28005KT 08/M03 A2993 RMK A01 T00811031  RH  045%=      5-min Rain = 0
KTAS 140309Z 28006KT 08/M03 A2993 RMK A01 T00811031  RH  045%=      5-min Rain = 0
KTAS 140310Z 28007KT 08/M03 A2993 RMK A01 T00811031  RH  045%=      5-min Rain = 0
KTAS 140311Z 28006KT 08/M03 A2993 RMK A01 T00811031  RH  045%=      5-min Rain = 0
KTAS 140312Z 28006KT 08/M03 A2993 RMK A01 T00811031  RH  045%=      5-min Rain = 0
KTAS 140313Z 28006KT 08/M03 A2993 RMK A01 T00821030  RH  045%=      5-min Rain = 0
KTAS 140314Z 28006KT 08/M03 A2993 RMK A01 T00821030  RH  045%=      5-min Rain = 0
KTAS 140315Z 28006KT 08/M03 A2992 RMK A01 T00821029  RH  045%=      5-min Rain = 0
KTAS 140316Z 28006KT 08/M03 A2992 RMK A01 T00811030  RH  046%=      5-min Rain = 0
KTAS 140317Z 28006KT 08/M03 A2992 RMK A01 T00811029  RH  046%=      5-min Rain = 0
KTAS 140318Z 28006KT 08/M03 A2992 RMK A01 T00801029  RH  046%=      5-min Rain = 0
KTAS 140319Z 28007KT 08/M03 A2992 RMK A01 T00801029  RH  046%=      5-min Rain = 0
KTAS 140320Z 28007KT 08/M03 A2992 RMK A01 T00801029  RH  046%=      5-min Rain = 0
KTAS 140321Z 28007KT 08/M03 A2992 RMK A01 T00791028  RH  047%=      5-min Rain = 0
KTAS 140322Z 28007KT 08/M03 A2992 RMK A01 T00781028  RH  047%=      5-min Rain = 0
KTAS 140323Z 28007KT 08/M03 A2992 RMK A01 T00771028  RH  048%=      5-min Rain = 0
KTAS 140324Z 28008KT 08/M03 A2992 RMK A01 T00761027  RH  048%=      5-min Rain = 0
KTAS 140325Z 28008KT 08/M03 A2992 RMK A01 T00751027  RH  048%=      5-min Rain = 0
KTAS 140326Z 28008KT 08/M03 A2992 RMK A01 T00751026  RH  049%=      5-min Rain = 0
KTAS 140327Z 28008KT 08/M03 A2992 RMK A01 T00751026  RH  049%=      5-min Rain = 0
KTAS 140328Z 29007KT 08/M03 A2992 RMK A01 T00751025  RH  049%=      5-min Rain = 0
KTAS 140329Z 28008KT 08/M03 A2992 RMK A01 T00761025  RH  049%=      5-min Rain = 0
KTAS 140330Z 28008KT 08/M02 A2992 RMK A01 T00771024  RH  049%=      5-min Rain = 0
KTAS 140331Z 28008KT 08/M02 A2992 RMK A01 T00781024  RH  049%=      5-min Rain = 0
KTAS 140332Z 28008KT 08/M02 A2992 RMK A01 T00791024  RH  048%=      5-min Rain = 0
KTAS 140333Z 28008KT 08/M02 A2992 RMK A01 T00801023  RH  048%=      5-min Rain = 0
KTAS 140334Z 28008KT 08/M02 A2992 RMK A01 T00801024  RH  048%=      5-min Rain = 0
KTAS 140335Z 28008KT 08/M02 A2992 RMK A01 T00801023  RH  048%=      5-min Rain = 0
KTAS 140336Z 28008KT 08/M02 A2992 RMK A01 T00801023  RH  048%=      5-min Rain = 0
KTAS 140337Z 28008KT 08/M02 A2992 RMK A01 T00821023  RH  048%=      5-min Rain = 0
KTAS 140338Z 28008KT 08/M02 A2992 RMK A01 T00821023  RH  047%=      5-min Rain = 0
KTAS 140339Z 28008KT 08/M02 A2992 RMK A01 T00831023  RH  047%=      5-min Rain = 0
KTAS 140340Z 28009KT 08/M02 A2992 RMK A01 T00841023  RH  047%=      5-min Rain = 0
KTAS 140341Z 28009KT 08/M02 A2992 RMK A01 T00841023  RH  047%=      5-min Rain = 0
KTAS 140342Z 28009KT 08/M02 A2992 RMK A01 T00841023  RH  047%=      5-min Rain = 0
KTAS 140343Z 28008KT 08/M02 A2992 RMK A01 T00841023  RH  047%=      5-min Rain = 0
KTAS 140344Z 28009KT 09/M02 A2992 RMK A01 T00851023  RH  047%=      5-min Rain = 0
KTAS 140345Z 28009KT 09/M02 A2992 RMK A01 T00851023  RH  046%=      5-min Rain = 0
KTAS 140346Z 28009KT 09/M02 A2992 RMK A01 T00851023  RH  046%=      5-min Rain = 0
KTAS 140347Z 28009KT 09/M02 A2992 RMK A01 T00851023  RH  047%=      5-min Rain = 0
KTAS 140348Z 28009KT 08/M02 A2992 RMK A01 T00841023  RH  047%=      5-min Rain = 0
KTAS 140349Z 28009KT 08/M02 A2992 RMK A01 T00841024  RH  047%=      5-min Rain = 0
KTAS 140350Z 28008KT 08/M02 A2992 RMK A01 T00841024  RH  047%=      5-min Rain = 0
KTAS 140351Z 28008KT 08/M02 A2992 RMK A01 T00831024  RH  047%=      5-min Rain = 0
KTAS 140352Z 28008KT 08/M02 A2992 RMK A01 T00831024  RH  047%=      5-min Rain = 0
KTAS 140353Z 29008KT 08/M02 A2991 RMK A01 T00831024  RH  047%=      5-min Rain = 0
KTAS 140354Z 28008KT 08/M02 A2991 RMK A01 T00821024  RH  047%=      5-min Rain = 0
KTAS 140355Z 29008KT 08/M02 A2991 RMK A01 T00821024  RH  047%=      5-min Rain = 0
KTAS 140356Z 29008KT 08/M02 A2992 RMK A01 T00821024  RH  047%=      5-min Rain = 0
KTAS 140357Z 29008KT 08/M03 A2992 RMK A01 T00811025  RH  047%=      5-min Rain = 0
KTAS 140358Z 29008KT 08/M03 A2992 RMK A01 T00801025  RH  048%=      5-min Rain = 0
KTAS 140359Z 29008KT 08/M03 A2992 RMK A01 T00791025  RH  048%=      5-min Rain = 0
KTAS 140400Z 29008KT 08/M03 A2992 RMK A01 T00781025  RH  048%=      5-min Rain = 0
KTAS 140401Z 29008KT 08/M02 A2992 RMK A01 T00781024  RH  048%=      5-min Rain = 0
KTAS 140402Z 29008KT 08/M02 A2992 RMK A01 T00781024  RH  048%=      5-min Rain = 0
KTAS 140403Z 29008KT 08/M02 A2992 RMK A01 T00771024  RH  049%=      5-min Rain = 0
KTAS 140404Z 29008KT 08/M02 A2992 RMK A01 T00771024  RH  049%=      5-min Rain = 0
KTAS 140405Z 29008KT 08/M02 A2992 RMK A01 T00761024  RH  049%=      5-min Rain = 0
KTAS 140406Z 29008KT 08/M03 A2992 RMK A01 T00761025  RH  049%=      5-min Rain = 0
KTAS 140407Z 30008KT 08/M03 A2992 RMK A01 T00751025  RH  049%=      5-min Rain = 0
KTAS 140408Z 30008KT 07/M03 A2992 RMK A01 T00741025  RH  049%=      5-min Rain = 0
KTAS 140409Z 30008KT 07/M03 A2992 RMK A01 T00731025  RH  050%=      5-min Rain = 0
KTAS 140410Z 30008KT 07/M03 A2992 RMK A01 T00731025  RH  050%=      5-min Rain = 0
KTAS 140411Z 30008KT 07/M03 A2992 RMK A01 T00731025  RH  050%=      5-min Rain = 0
KTAS 140412Z 30007KT 07/M03 A2992 RMK A01 T00731026  RH  049%=      5-min Rain = 0
KTAS 140413Z 30007KT 07/M03 A2992 RMK A01 T00731026  RH  049%=      5-min Rain = 0
KTAS 140414Z 30006KT 07/M03 A2992 RMK A01 T00741026  RH  049%=      5-min Rain = 0
KTAS 140415Z 30006KT 07/M03 A2992 RMK A01 T00741026  RH  049%=      5-min Rain = 0
KTAS 140416Z 30007KT 07/M03 A2992 RMK A01 T00741026  RH  049%=      5-min Rain = 0
KTAS 140417Z 29007KT 07/M03 A2992 RMK A01 T00731026  RH  049%=      5-min Rain = 0
KTAS 140418Z 29007KT 07/M03 A2992 RMK A01 T00731026  RH  049%=      5-min Rain = 0
KTAS 140419Z 29006KT 07/M03 A2992 RMK A01 T00731026  RH  049%=      5-min Rain = 0
KTAS 140420Z 29007KT 07/M03 A2992 RMK A01 T00721027  RH  049%=      5-min Rain = 0
KTAS 140421Z 29007KT 07/M03 A2992 RMK A01 T00711027  RH  050%=      5-min Rain = 0
KTAS 140422Z 29007KT 07/M03 A2992 RMK A01 T00711027  RH  050%=      5-min Rain = 0
KTAS 140423Z 29007KT 07/M03 A2992 RMK A01 T00701027  RH  050%=      5-min Rain = 0
KTAS 140424Z 29007KT 07/M03 A2992 RMK A01 T00691028  RH  050%=      5-min Rain = 0
KTAS 140425Z 29007KT 07/M03 A2992 RMK A01 T00691027  RH  050%=      5-min Rain = 0
KTAS 140426Z 30007KT 07/M03 A2992 RMK A01 T00691027  RH  050%=      5-min Rain = 0
KTAS 140427Z 29007KT 07/M03 A2992 RMK A01 T00701027  RH  050%=      5-min Rain = 0
KTAS 140428Z 29008KT 07/M03 A2992 RMK A01 T00711027  RH  050%=      5-min Rain = 0
KTAS 140429Z 29008KT 07/M03 A2992 RMK A01 T00711028  RH  049%=      5-min Rain = 0
KTAS 140430Z 29008KT 07/M03 A2992 RMK A01 T00711028  RH  049%=      5-min Rain = 0
KTAS 140431Z 29008KT 07/M03 A2992 RMK A01 T00711028  RH  049%=      5-min Rain = 0
KTAS 140432Z 30008KT 07/M03 A2992 RMK A01 T00711028  RH  049%=      5-min Rain = 0
KTAS 140433Z 30007KT 07/M03 A2992 RMK A01 T00701028  RH  049%=      5-min Rain = 0
KTAS 140434Z 30007KT 07/M03 A2992 RMK A01 T00681029  RH  050%=      5-min Rain = 0
KTAS 140435Z 31006KT 07/M03 A2992 RMK A01 T00661030  RH  050%=      5-min Rain = 0
KTAS 140436Z 31005KT 06/M03 A2992 RMK A01 T00641029  RH  051%=      5-min Rain = 0
KTAS 140437Z 32004KT 06/M03 A2992 RMK A01 T00621030  RH  052%=      5-min Rain = 0
KTAS 140438Z 31004KT 06/M03 A2992 RMK A01 T00601030  RH  052%=      5-min Rain = 0
KTAS 140439Z 30005KT 06/M03 A2992 RMK A01 T00581031  RH  053%=      5-min Rain = 0
KTAS 140440Z 29005KT 06/M03 A2992 RMK A01 T00571031  RH  053%=      5-min Rain = 0
KTAS 140441Z 28006KT 06/M03 A2992 RMK A01 T00571030  RH  054%=      5-min Rain = 0
KTAS 140442Z 29007KT 06/M03 A2992 RMK A01 T00591027  RH  054%=      5-min Rain = 0
KTAS 140443Z 29007KT 06/M03 A2991 RMK A01 T00621027  RH  053%=      5-min Rain = 0
KTAS 140444Z 29007KT 06/M03 A2991 RMK A01 T00641027  RH  052%=      5-min Rain = 0
KTAS 140445Z 29007KT 06/M03 A2991 RMK A01 T00641027  RH  052%=      5-min Rain = 0
KTAS 140446Z 29006KT 07/M03 A2991 RMK A01 T00651027  RH  052%=      5-min Rain = 0
KTAS 140447Z 30006KT 07/M03 A2991 RMK A01 T00651027  RH  052%=      5-min Rain = 0
KTAS 140448Z 30006KT 07/M03 A2991 RMK A01 T00661027  RH  052%=      5-min Rain = 0
KTAS 140449Z 30006KT 07/M03 A2991 RMK A01 T00661027  RH  051%=      5-min Rain = 0
KTAS 140450Z 30006KT 07/M03 A2991 RMK A01 T00661027  RH  051%=      5-min Rain = 0
KTAS 140451Z 30005KT 07/M03 A2991 RMK A01 T00661028  RH  051%=      5-min Rain = 0
KTAS 140452Z 30005KT 07/M03 A2991 RMK A01 T00661028  RH  051%=      5-min Rain = 0
KTAS 140453Z 30005KT 07/M03 A2992 RMK A01 T00661027  RH  051%=      5-min Rain = 0
KTAS 140454Z 31004KT 07/M03 A2992 RMK A01 T00671027  RH  051%=      5-min Rain = 0
KTAS 140455Z 31004KT 07/M03 A2992 RMK A01 T00671027  RH  051%=      5-min Rain = 0
KTAS 140456Z 31005KT 07/M03 A2992 RMK A01 T00671027  RH  051%=      5-min Rain = 0
KTAS 140457Z 31005KT 07/M03 A2992 RMK A01 T00671027  RH  051%=      5-min Rain = 0
KTAS 140458Z 30005KT 07/M03 A2992 RMK A01 T00681027  RH  051%=      5-min Rain = 0
KTAS 140459Z 31006KT 07/M03 A2992 RMK A01 T00711025  RH  050%=      5-min Rain = 0
KTAS 140500Z 30005KT 07/M03 A2992 RMK A01 T00741027  RH  049%=      5-min Rain = 0
KTAS 140501Z 30007KT 07/M03 A2992 RMK A01 T00741027  RH  049%=      5-min Rain = 0
KTAS 140502Z 30007KT 07/M03 A2992 RMK A01 T00731027  RH  049%=      5-min Rain = 0
KTAS 140503Z 30007KT 07/M03 A2992 RMK A01 T00721027  RH  049%=      5-min Rain = 0
KTAS 140504Z 30007KT 07/M03 A2991 RMK A01 T00721027  RH  049%=      5-min Rain = 0
KTAS 140505Z 30007KT 07/M03 A2991 RMK A01 T00711027  RH  050%=      5-min Rain = 0
KTAS 140506Z 30007KT 07/M03 A2991 RMK A01 T00701027  RH  050%=      5-min Rain = 0
KTAS 140507Z 30009KT 07/M03 A2992 RMK A01 T00691027  RH  050%=      5-min Rain = 0
KTAS 140508Z 30009KT 07/M03 A2992 RMK A01 T00701025  RH  051%=      5-min Rain = 0
KTAS 140509Z 30009KT 07/M02 A2992 RMK A01 T00721024  RH  050%=      5-min Rain = 0
KTAS 140510Z 29008KT 07/M02 A2992 RMK A01 T00721024  RH  050%=      5-min Rain = 0
KTAS 140511Z 30009KT 07/M02 A2992 RMK A01 T00711024  RH  051%=      5-min Rain = 0
KTAS 140512Z 29009KT 07/M02 A2992 RMK A01 T00711024  RH  051%=      5-min Rain = 0
KTAS 140513Z 29009KT 07/M02 A2992 RMK A01 T00721023  RH  051%=      5-min Rain = 0
KTAS 140514Z 29009KT 08/M02 A2992 RMK A01 T00761023  RH  050%=      5-min Rain = 0
KTAS 140515Z 29008KT 07/M02 A2992 RMK A01 T00731024  RH  050%=      5-min Rain = 0
KTAS 140516Z 29008KT 07/M03 A2992 RMK A01 T00701025  RH  051%=      5-min Rain = 0
KTAS 140517Z 29008KT 07/M03 A2992 RMK A01 T00681025  RH  052%=      5-min Rain = 0
KTAS 140518Z 29008KT 07/M02 A2992 RMK A01 T00661024  RH  052%=      5-min Rain = 0
KTAS 140519Z 29008KT 07/M02 A2992 RMK A01 T00651024  RH  053%=      5-min Rain = 0
KTAS 140520Z 29008KT 06/M02 A2992 RMK A01 T00641024  RH  053%=      5-min Rain = 0
KTAS 140521Z 29008KT 06/M02 A2992 RMK A01 T00631024  RH  054%=      5-min Rain = 0
KTAS 140522Z 29008KT 06/M02 A2992 RMK A01 T00621024  RH  054%=      5-min Rain = 0
KTAS 140523Z 29008KT 06/M02 A2992 RMK A01 T00611024  RH  055%=      5-min Rain = 0
KTAS 140524Z 29008KT 06/M02 A2992 RMK A01 T00601024  RH  055%=      5-min Rain = 0
KTAS 140525Z 29008KT 06/M02 A2992 RMK A01 T00591024  RH  055%=      5-min Rain = 0
KTAS 140526Z 29008KT 06/M02 A2992 RMK A01 T00591024  RH  055%=      5-min Rain = 0
KTAS 140527Z 29008KT 06/M02 A2992 RMK A01 T00581024  RH  055%=      5-min Rain = 0
KTAS 140528Z 28008KT 06/M02 A2992 RMK A01 T00571024  RH  056%=      5-min Rain = 0
KTAS 140529Z 28008KT 06/M03 A2992 RMK A01 T00561025  RH  056%=      5-min Rain = 0
KTAS 140530Z 28008KT 06/M03 A2992 RMK A01 T00561025  RH  056%=      5-min Rain = 0
KTAS 140531Z 28007KT 06/M03 A2992 RMK A01 T00551025  RH  057%=      5-min Rain = 0
KTAS 140532Z 28007KT 05/M03 A2992 RMK A01 T00541025  RH  057%=      5-min Rain = 0
KTAS 140533Z 28006KT 05/M02 A2992 RMK A01 T00541024  RH  057%=      5-min Rain = 0
KTAS 140534Z 29006KT 05/M03 A2992 RMK A01 T00541025  RH  057%=      5-min Rain = 0
KTAS 140535Z 29006KT 05/M03 A2992 RMK A01 T00531025  RH  057%=      5-min Rain = 0
KTAS 140536Z 29006KT 05/M03 A2992 RMK A01 T00531025  RH  057%=      5-min Rain = 0
KTAS 140537Z 29006KT 05/M02 A2992 RMK A01 T00531024  RH  057%=      5-min Rain = 0
KTAS 140538Z 29006KT 05/M02 A2993 RMK A01 T00531024  RH  057%=      5-min Rain = 0
KTAS 140539Z 29007KT 05/M02 A2993 RMK A01 T00541024  RH  057%=      5-min Rain = 0
KTAS 140540Z 29008KT 05/M02 A2993 RMK A01 T00541024  RH  057%=      5-min Rain = 0
KTAS 140541Z 29008KT 06/M02 A2993 RMK A01 T00551024  RH  057%=      5-min Rain = 0
KTAS 140542Z 29008KT 06/M02 A2993 RMK A01 T00551024  RH  057%=      5-min Rain = 0
KTAS 140543Z 30007KT 06/M02 A2993 RMK A01 T00551024  RH  057%=      5-min Rain = 0
KTAS 140544Z 33007KT 06/M03 A2993 RMK A01 T00551025  RH  056%=      5-min Rain = 0
KTAS 140545Z 34007KT 05/M03 A2993 RMK A01 T00521027  RH  057%=      5-min Rain = 0
KTAS 140546Z 34007KT 05/M03 A2993 RMK A01 T00481028  RH  058%=      5-min Rain = 0
KTAS 140547Z 34008KT 05/M03 A2993 RMK A01 T00461028  RH  059%=      5-min Rain = 0
KTAS 140548Z 34008KT 05/M03 A2993 RMK A01 T00451028  RH  059%=      5-min Rain = 0
KTAS 140549Z 34007KT 04/M03 A2993 RMK A01 T00441027  RH  060%=      5-min Rain = 0
KTAS 140550Z 35007KT 04/M03 A2993 RMK A01 T00441027  RH  060%=      5-min Rain = 0
KTAS 140551Z 35007KT 04/M03 A2993 RMK A01 T00431028  RH  060%=      5-min Rain = 0
KTAS 140552Z 35007KT 04/M03 A2993 RMK A01 T00421028  RH  060%=      5-min Rain = 0
KTAS 140553Z 00007KT 04/M03 A2993 RMK A01 T00411029  RH  061%=      5-min Rain = 0
KTAS 140554Z 36008KT 04/M03 A2993 RMK A01 T00391029  RH  061%=      5-min Rain = 0
KTAS 140555Z 35008KT 04/M03 A2993 RMK A01 T00381029  RH  062%=      5-min Rain = 0
KTAS 140556Z 35007KT 04/M03 A2993 RMK A01 T00371029  RH  062%=      5-min Rain = 0
KTAS 140557Z 35007KT 04/M03 A2993 RMK A01 T00361029  RH  062%=      5-min Rain = 0
KTAS 140558Z 34008KT 04/M03 A2993 RMK A01 T00361029  RH  063%=      5-min Rain = 0
KTAS 140559Z 34007KT 04/M03 A2993 RMK A01 T00371028  RH  063%=      5-min Rain = 0

Page generated in 0.0798 seconds.